M I D A S
Marine Information and Data Acquisition System
Tripno 1899 of the Zeeleeuw from 2010-06-11 06:57:26 to 2010-06-11 10:32:55
Back to CruiseResearch ActivitiesStationsMapUnderway DataData graphs

EquipmentUnitsComment
TimeDGPSUTC
LatitudeDGPSDM.mWGS84
LongitudeDGPSDM.mWGS84
TemperatureSBE03/SBE38deg celciusITS90
ConductivitySBE21S/mITS90
SalinitySBE21 Practical Salinity Units
ChlorophylAChelsea fluorimeterg/lCalibrated in Aceton
Missing or incorrect values are displayed as -999
Sea surface data collected by the RV Zeeleeuw from 2010-06-11 06:54:28 to 2010-06-11 11:08:51
                                                                                    Next 1000 lines
Time Latitude Longitude Temperature Conductivity Salinity ChlorophylA
2010-06-11 06:54:38 51°13.663 2°55.956 19.8648 4.254079 31.414354 -0.965744
2010-06-11 06:54:43 51°13.664 2°55.952 19.8765 4.252601 31.402178 -1.000568
2010-06-11 06:54:48 51°13.665 2°55.947 19.8816 4.253868 31.412072 -1.000568
2010-06-11 06:54:53 51°13.667 2°55.941 19.879 4.25429 31.415009 -0.965744
2010-06-11 06:54:59 51°13.669 2°55.933 19.8754 4.254184 31.414681 -0.965744
2010-06-11 06:55:05 51°13.671 2°55.925 19.8855 4.254184 31.414681 -0.965744
2010-06-11 06:55:11 51°13.674 2°55.915 19.8843 4.25429 31.417178 -0.93092
2010-06-11 06:55:16 51°13.676 2°55.906 19.8853 4.254184 31.416309 -1.000568
2010-06-11 06:55:22 51°13.678 2°55.895 19.8772 4.254079 31.415439 -0.965744
2010-06-11 06:55:26 51°13.68 2°55.888 19.8823 4.253973 31.413484 -0.965744
2010-06-11 06:55:31 51°13.681 2°55.877 19.8916 4.254079 31.413812 -0.965744
2010-06-11 06:55:37 51°13.683 2°55.865 19.8939 4.254079 31.413812 -0.965744
2010-06-11 06:55:42 51°13.684 2°55.855 19.8894 4.254079 31.413269 -0.965744
2010-06-11 06:55:46 51°13.685 2°55.848 19.8946 4.254079 31.412727 -0.965744
2010-06-11 06:55:51 51°13.686 2°55.838 19.9037 4.254184 31.414139 -1.000568
2010-06-11 06:55:56 51°13.686 2°55.829 19.9001 4.254079 31.413812 -0.965744
2010-06-11 06:56:02 51°13.687 2°55.819 19.8923 4.253973 31.4124 -0.965744
2010-06-11 06:56:06 51°13.688 2°55.812 19.8947 4.253973 31.4124 -0.965744
2010-06-11 06:56:11 51°13.688 2°55.804 19.8924 4.253973 31.4124 -0.965744
2010-06-11 06:56:15 51°13.688 2°55.798 19.8974 4.254079 31.413812 -1.000568
2010-06-11 06:56:21 51°13.688 2°55.789 19.8933 4.254079 31.413812 -0.965744
2010-06-11 06:56:26 51°13.688 2°55.782 19.8954 4.254079 31.414354 -0.965744
2010-06-11 06:56:30 51°13.688 2°55.777 19.895 4.253973 31.412942 -0.965744
2010-06-11 06:56:35 51°13.688 2°55.771 19.8969 4.253973 31.412942 -0.965744
2010-06-11 06:56:40 51°13.688 2°55.767 19.9 4.254184 31.414139 -1.000568
2010-06-11 06:56:45 51°13.687 2°55.763 19.9032 4.254079 31.413269 -0.93092
2010-06-11 06:56:50 51°13.687 2°55.759 19.9043 4.254079 31.413269 -0.965744
2010-06-11 06:56:54 51°13.687 2°55.757 19.9015 4.254079 31.412727 -0.965744
2010-06-11 06:56:59 51°13.687 2°55.755 19.9015 4.254184 31.413597 -1.000568
2010-06-11 06:57:04 51°13.687 2°55.753 19.8987 4.254184 31.413597 -1.000568
2010-06-11 06:57:09 51°13.687 2°55.752 19.8993 4.254079 31.412727 -0.965744
2010-06-11 06:57:14 51°13.687 2°55.751 19.9019 4.254079 31.413269 -1.000568
2010-06-11 06:57:19 51°13.688 2°55.749 19.9047 4.254079 31.413269 -0.965744
2010-06-11 06:57:23 51°13.688 2°55.749 19.905 4.254079 31.412727 -0.965744
2010-06-11 06:57:29 51°13.688 2°55.748 19.9064 4.254184 31.413597 -0.965744
2010-06-11 06:57:33 51°13.688 2°55.748 19.9083 4.254184 31.413597 -0.965744
2010-06-11 06:57:38 51°13.689 2°55.748 19.9104 4.254079 31.412727 -0.965744
2010-06-11 06:57:43 51°13.69 2°55.748 19.9076 4.254184 31.414139 -0.965744
2010-06-11 06:57:47 51°13.69 2°55.748 19.9106 4.254184 31.413597 -1.000568
2010-06-11 06:57:53 51°13.692 2°55.748 19.9069 4.254184 31.413597 -0.965744
2010-06-11 06:57:58 51°13.693 2°55.748 19.9112 4.25429 31.415009 -1.000568
2010-06-11 06:58:03 51°13.695 2°55.748 19.9139 4.25429 31.415009 -1.000568
2010-06-11 06:58:08 51°13.696 2°55.748 19.9218 4.25429 31.415009 -0.965744
2010-06-11 06:58:13 51°13.698 2°55.748 19.922 4.25429 31.415009 -0.965744
2010-06-11 06:58:18 51°13.701 2°55.748 19.9236 4.254184 31.413597 -0.965744
2010-06-11 06:58:23 51°13.704 2°55.747 19.9305 4.254184 31.414139 -1.000568
2010-06-11 06:58:28 51°13.707 2°55.746 19.9337 4.254184 31.414139 -0.965744
2010-06-11 06:58:33 51°13.71 2°55.744 19.9305 4.254184 31.414139 -0.965744
2010-06-11 06:58:38 51°13.714 2°55.741 19.9244 4.25429 31.415009 -0.93092
2010-06-11 06:58:43 51°13.718 2°55.737 19.9237 4.254395 31.416421 -0.965744
2010-06-11 06:58:48 51°13.722 2°55.734 19.9204 4.254184 31.414139 -0.965744
2010-06-11 06:58:53 51°13.726 2°55.73 19.9199 4.25429 31.413924 -1.000568
2010-06-11 06:58:58 51°13.731 2°55.725 19.9115 4.254395 31.413709 -0.965744
2010-06-11 06:59:03 51°13.736 2°55.719 19.9015 4.254395 31.413709 -0.965744
2010-06-11 06:59:08 51°13.741 2°55.713 19.8858 4.25429 31.411755 -1.000568
2010-06-11 06:59:13 51°13.748 2°55.707 19.886 4.25429 31.412297 -0.965744
2010-06-11 06:59:18 51°13.754 2°55.699 19.8829 4.254184 31.41197 -0.965744
2010-06-11 06:59:23 51°13.761 2°55.691 19.8694 4.254395 31.414252 -0.965744
2010-06-11 06:59:28 51°13.768 2°55.683 19.8516 4.254395 31.415336 -0.965744
2010-06-11 06:59:33 51°13.776 2°55.675 19.8259 4.254395 31.415336 -0.965744
2010-06-11 06:59:38 51°13.784 2°55.666 19.8149 4.254395 31.415336 -1.000568
2010-06-11 06:59:43 51°13.793 2°55.658 19.8495 4.254184 31.413055 -1.000568
2010-06-11 06:59:48 51°13.801 2°55.65 19.8233 4.254501 31.415121 -1.000568
2010-06-11 06:59:53 51°13.81 2°55.642 19.8334 4.254184 31.412512 -0.965744
2010-06-11 06:59:58 51°13.82 2°55.634 19.828 4.254395 31.414794 -0.965744
2010-06-11 07:00:03 51°13.829 2°55.626 19.8563 4.254395 31.414794 -0.965744
2010-06-11 07:00:08 51°13.839 2°55.618 19.8667 4.254184 31.413055 -0.965744
2010-06-11 07:00:13 51°13.849 2°55.611 19.8636 4.25429 31.414467 -0.965744
2010-06-11 07:00:18 51°13.859 2°55.603 19.8626 4.25429 31.415009 -1.000568
2010-06-11 07:00:23 51°13.87 2°55.595 19.8676 4.254184 31.414139 -0.965744
2010-06-11 07:00:28 51°13.88 2°55.587 19.8716 4.25429 31.415009 -0.965744
2010-06-11 07:00:33 51°13.89 2°55.58 19.8784 4.25429 31.415009 -0.965744
2010-06-11 07:00:38 51°13.901 2°55.572 19.8805 4.254184 31.413597 -0.965744
2010-06-11 07:00:43 51°13.912 2°55.564 19.8819 4.254501 31.415664 -0.965744
2010-06-11 07:00:48 51°13.922 2°55.557 19.8862 4.254184 31.413055 -0.965744
2010-06-11 07:00:52 51°13.931 2°55.551 19.8828 4.25429 31.413382 -0.965744
2010-06-11 07:00:58 51°13.944 2°55.541 19.8753 4.254501 31.415664 -0.965744
2010-06-11 07:01:03 51°13.955 2°55.533 19.8769 4.254501 31.415664 -0.965744
2010-06-11 07:01:08 51°13.966 2°55.525 19.8829 4.25429 31.415009 -0.965744
2010-06-11 07:01:12 51°13.974 2°55.519 19.8868 4.254395 31.414794 -0.965744
2010-06-11 07:01:18 51°13.988 2°55.51 19.8893 4.25429 31.413924 -1.000568
2010-06-11 07:01:23 51°13.998 2°55.502 19.8973 4.25429 31.413382 -0.965744
2010-06-11 07:01:28 51°14.009 2°55.495 19.8958 4.254184 31.412512 -1.000568
2010-06-11 07:01:33 51°14.02 2°55.487 19.9043 4.254184 31.412512 -1.000568
2010-06-11 07:01:38 51°14.032 2°55.479 19.8777 4.254395 31.414252 -0.965744
2010-06-11 07:01:43 51°14.043 2°55.47 19.8757 4.25429 31.41284 -0.965744
2010-06-11 07:01:48 51°14.054 2°55.462 19.8979 4.25429 31.41284 -0.965744
2010-06-11 07:01:53 51°14.066 2°55.454 19.8895 4.254501 31.414579 -1.000568
2010-06-11 07:01:58 51°14.077 2°55.446 19.9102 4.254184 31.411428 -0.965744
2010-06-11 07:02:03 51°14.089 2°55.437 19.8775 4.254184 31.411428 -0.965744
2010-06-11 07:02:08 51°14.1 2°55.428 19.8767 4.25429 31.412297 -1.000568
2010-06-11 07:02:13 51°14.112 2°55.42 19.8729 4.254395 31.413167 -0.965744
2010-06-11 07:02:18 51°14.123 2°55.411 19.8976 4.25429 31.411755 -0.965744
2010-06-11 07:02:23 51°14.135 2°55.403 19.9036 4.254395 31.412625 -0.965744
2010-06-11 07:02:28 51°14.147 2°55.394 19.9003 4.254501 31.413495 -1.000568
2010-06-11 07:02:33 51°14.158 2°55.385 19.8734 4.254501 31.413495 -1.000568
2010-06-11 07:02:38 51°14.169 2°55.375 19.8754 4.254184 31.411428 -0.965744
2010-06-11 07:02:43 51°14.181 2°55.365 19.8778 4.254606 31.414906 -1.000568
2010-06-11 07:02:48 51°14.192 2°55.355 19.8827 4.254501 31.414037 -0.965744
2010-06-11 07:02:52 51°14.201 2°55.347 19.8997 4.254606 31.413822 -0.965744
2010-06-11 07:02:58 51°14.215 2°55.335 19.8927 4.254606 31.413822 -0.93092
2010-06-11 07:03:03 51°14.226 2°55.326 19.8662 4.254606 31.413822 -0.93092
2010-06-11 07:03:08 51°14.238 2°55.316 19.8953 4.254184 31.410886 -0.965744
2010-06-11 07:03:13 51°14.249 2°55.305 19.8698 4.254712 31.414692 -0.965744
2010-06-11 07:03:18 51°14.26 2°55.295 19.8607 4.254184 31.410343 -0.965744
2010-06-11 07:03:23 51°14.271 2°55.285 19.8509 4.25429 31.411213 -1.000568
2010-06-11 07:03:28 51°14.282 2°55.274 19.8767 4.253868 31.408277 -0.965744
2010-06-11 07:03:33 51°14.293 2°55.263 19.8772 4.253868 31.408277 -0.965744
2010-06-11 07:03:38 51°14.304 2°55.253 19.8322 4.254712 31.414692 -0.965744
2010-06-11 07:03:43 51°14.316 2°55.242 19.879 4.253868 31.407735 -0.965744
2010-06-11 07:03:48 51°14.327 2°55.231 19.8426 4.254079 31.409474 -0.965744
2010-06-11 07:03:53 51°14.338 2°55.221 19.884 4.254395 31.411541 -1.000568
2010-06-11 07:03:58 51°14.349 2°55.21 19.867 4.254501 31.41241 -0.965744
2010-06-11 07:04:03 51°14.36 2°55.2 19.846 4.254501 31.41241 -0.965744
2010-06-11 07:04:08 51°14.37 2°55.189 19.853 4.253551 31.405126 -1.000568
2010-06-11 07:04:13 51°14.382 2°55.178 19.8252 4.254712 31.415234 -0.965744
2010-06-11 07:04:18 51°14.393 2°55.167 19.8615 4.253762 31.406323 -0.93092
2010-06-11 07:04:23 51°14.405 2°55.156 19.8569 4.253973 31.408062 -1.000568
2010-06-11 07:04:28 51°14.417 2°55.144 19.8546 4.254923 31.415889 -1.035392
2010-06-11 07:04:33 51°14.429 2°55.132 19.8099 4.254923 31.415889 -1.035392
2010-06-11 07:04:38 51°14.441 2°55.12 19.8227 4.25429 31.410671 -1.000568
2010-06-11 07:04:43 51°14.453 2°55.108 19.8373 4.255239 31.418497 -1.000568
2010-06-11 07:04:48 51°14.466 2°55.096 19.8462 4.253551 31.404042 -0.965744
2010-06-11 07:04:53 51°14.478 2°55.085 19.8502 4.254395 31.410998 -0.965744
2010-06-11 07:04:58 51°14.491 2°55.072 19.8365 4.253657 31.405453 -0.965744
2010-06-11 07:05:03 51°14.504 2°55.059 19.8243 4.253657 31.405453 -0.965744
2010-06-11 07:05:08 51°14.517 2°55.045 19.838 4.254606 31.413822 -1.000568
2010-06-11 07:05:12 51°14.527 2°55.033 19.8539 4.256084 31.425454 -0.965744
2010-06-11 07:05:18 51°14.542 2°55.015 19.8539 4.253657 31.405996 -0.965744
2010-06-11 07:05:23 51°14.554 2°54.997 19.8457 4.254712 31.414692 -0.965744
2010-06-11 07:05:28 51°14.566 2°54.978 19.8093 4.254606 31.414906 -0.965744
2010-06-11 07:05:32 51°14.574 2°54.962 19.8307 4.254606 31.414906 -0.965744
2010-06-11 07:05:37 51°14.584 2°54.941 19.8315 4.254184 31.411428 -0.965744
2010-06-11 07:05:43 51°14.596 2°54.915 19.8253 4.255662 31.422518 -0.965744
2010-06-11 07:05:47 51°14.603 2°54.897 19.8341 4.255028 31.416758 -0.965744
2010-06-11 07:05:52 51°14.612 2°54.873 19.8372 4.254079 31.408932 -0.965744
2010-06-11 07:05:58 51°14.621 2°54.844 19.8157 4.254712 31.413607 -0.965744
2010-06-11 07:06:03 51°14.629 2°54.819 19.8329 4.254712 31.413607 -0.965744
2010-06-11 07:06:07 51°14.635 2°54.799 19.8401 4.253762 31.406323 -1.000568
2010-06-11 07:06:12 51°14.641 2°54.773 19.8287 4.25429 31.410671 -1.000568
2010-06-11 07:06:18 51°14.647 2°54.741 19.8159 4.25334 31.404471 -0.965744
2010-06-11 07:06:22 51°14.65 2°54.72 19.8437 4.255978 31.426212 -1.000568
2010-06-11 07:06:28 51°14.653 2°54.686 19.8327 4.254817 31.417188 -0.965744
2010-06-11 07:06:32 51°14.654 2°54.664 19.8358 4.254817 31.417188 -0.965744
2010-06-11 07:06:38 51°14.653 2°54.63 19.8422 4.255134 31.419255 -0.965744
2010-06-11 07:06:42 51°14.652 2°54.608 19.8149 4.254923 31.417515 -1.000568
2010-06-11 07:06:47 51°14.648 2°54.58 19.806 4.255978 31.425127 -0.965744
2010-06-11 07:06:53 51°14.64 2°54.547 19.826 4.253868 31.408819 -0.965744
2010-06-11 07:06:58 51°14.633 2°54.521 19.8275 4.253973 31.408062 -0.965744
2010-06-11 07:07:02 51°14.626 2°54.5 19.8267 4.253973 31.408062 -0.965744
2010-06-11 07:07:07 51°14.616 2°54.475 19.8027 4.254501 31.411326 -1.000568
2010-06-11 07:07:12 51°14.605 2°54.45 19.7762 4.253973 31.406436 -0.965744
2010-06-11 07:07:18 51°14.591 2°54.423 19.7741 4.254817 31.413392 -1.000568
2010-06-11 07:07:23 51°14.577 2°54.402 19.7899 4.254501 31.411868 -0.965744
2010-06-11 07:07:27 51°14.567 2°54.383 19.7948 4.253657 31.401118 -1.000568
2010-06-11 07:07:32 51°14.554 2°54.36 19.7903 4.253657 31.401118 -1.000568
2010-06-11 07:07:38 51°14.539 2°54.332 19.7654 4.255028 31.412421 -0.965744
2010-06-11 07:07:43 51°14.526 2°54.31 19.7911 4.254712 31.408728 -0.965744
2010-06-11 07:07:47 51°14.516 2°54.291 19.8145 4.254606 31.407859 -0.965744
2010-06-11 07:07:52 51°14.503 2°54.267 19.7881 4.254501 31.408073 -1.000568
2010-06-11 07:07:58 51°14.488 2°54.24 19.8079 4.254712 31.410896 -0.965744
2010-06-11 07:08:03 51°14.475 2°54.216 19.7978 4.254712 31.410896 -0.965744
2010-06-11 07:08:07 51°14.465 2°54.197 19.7921 4.255451 31.419152 -0.93092
2010-06-11 07:08:13 51°14.45 2°54.169 19.7784 4.254501 31.409699 -1.000568
2010-06-11 07:08:18 51°14.438 2°54.143 19.7877 4.254184 31.408175 -1.000568
2010-06-11 07:08:22 51°14.429 2°54.123 19.7876 4.256611 31.426006 -0.965744
2010-06-11 07:08:27 51°14.416 2°54.1 19.7955 4.254395 31.407746 -0.965744
2010-06-11 07:08:33 51°14.402 2°54.069 19.7908 4.254395 31.407746 -0.965744
2010-06-11 07:08:38 51°14.39 2°54.045 19.7945 4.254817 31.41014 -1.000568
2010-06-11 07:08:42 51°14.381 2°54.024 19.8095 4.254079 31.405137 -0.965744
2010-06-11 07:08:47 51°14.37 2°53.999 19.7656 4.255134 31.413832 -1.000568
2010-06-11 07:08:53 51°14.356 2°53.968 19.8024 4.254079 31.405679 -0.965744
2010-06-11 07:08:58 51°14.344 2°53.944 19.7675 4.256506 31.427848 -0.965744
2010-06-11 07:09:02 51°14.335 2°53.923 19.7926 4.256506 31.427848 -0.965744
2010-06-11 07:09:07 51°14.324 2°53.898 19.7702 4.253234 31.399265 -0.965744
2010-06-11 07:09:13 51°14.31 2°53.868 19.8134 4.255239 31.415786 -1.000568
2010-06-11 07:09:18 51°14.3 2°53.841 19.775 4.25334 31.399593 -0.965744
2010-06-11 07:09:22 51°14.29 2°53.822 19.8143 4.255662 31.419807 -1.000568
2010-06-11 07:09:27 51°14.279 2°53.795 19.7981 4.25334 31.397426 -1.000568
2010-06-11 07:09:32 51°14.267 2°53.771 19.8092 4.25334 31.397426 -1.000568
2010-06-11 07:09:38 51°14.254 2°53.739 19.7864 4.255134 31.416001 -0.965744
2010-06-11 07:09:42 51°14.244 2°53.72 19.8163 4.255239 31.413618 -1.000568
2010-06-11 07:09:47 51°14.233 2°53.693 19.796 4.253973 31.403184 -0.965744
2010-06-11 07:09:52 51°14.22 2°53.668 19.8148 4.254923 31.411551 -1.000568
2010-06-11 07:09:58 51°14.207 2°53.637 19.8163 4.254712 31.40927 -0.965744
2010-06-11 07:10:02 51°14.197 2°53.617 19.8104 4.254712 31.40927 -0.965744
2010-06-11 07:10:07 51°14.186 2°53.591 19.812 4.255134 31.413832 -1.000568
2010-06-11 07:10:12 51°14.175 2°53.565 19.8055 4.253551 31.399706 -0.965744
2010-06-11 07:10:18 51°14.16 2°53.534 19.8111 4.255028 31.411879 -0.965744
2010-06-11 07:10:23 51°14.149 2°53.508 19.8014 4.25429 31.405792 -0.965744
2010-06-11 07:10:27 51°14.14 2°53.488 19.7928 4.256084 31.421116 -1.000568
2010-06-11 07:10:32 51°14.128 2°53.462 19.8128 4.256084 31.421116 -1.000568
2010-06-11 07:10:38 51°14.114 2°53.431 19.7828 4.253973 31.402642 -1.000568
2010-06-11 07:10:42 51°14.104 2°53.411 19.8234 4.254395 31.40883 -0.965744
2010-06-11 07:10:47 51°14.094 2°53.383 19.7722 4.253657 31.399492 -0.965744
2010-06-11 07:10:52 51°14.081 2°53.359 19.8274 4.255134 31.414917 -0.965744
2010-06-11 07:10:58 51°14.069 2°53.326 19.8248 4.253656 31.397866 -1.000568
2010-06-11 07:11:03 51°14.057 2°53.301 19.7921 4.253656 31.397866 -1.000568
2010-06-11 07:11:07 51°14.047 2°53.28 19.839 4.254923 31.411009 -0.93092
2010-06-11 07:11:13 51°14.034 2°53.248 19.8113 4.253129 31.394603 -1.000568
2010-06-11 07:11:18 51°14.022 2°53.223 19.8103 4.255239 31.415244 -0.965744
2010-06-11 07:11:22 51°14.013 2°53.202 19.8316 4.253234 31.396556 -1.000568
2010-06-11 07:11:27 51°14.001 2°53.175 19.8067 4.255028 31.411879 -0.965744
2010-06-11 07:11:32 51°13.989 2°53.15 19.8208 4.255028 31.411879 -0.965744
2010-06-11 07:11:38 51°13.976 2°53.118 19.7921 4.253551 31.399164 -1.000568
2010-06-11 07:11:42 51°13.965 2°53.099 19.8317 4.255767 31.417423 -1.000568
2010-06-11 07:11:47 51°13.955 2°53.071 19.8091 4.252918 31.393948 -0.965744
2010-06-11 07:11:52 51°13.943 2°53.047 19.8251 4.256295 31.424482 -0.93092
2010-06-11 07:11:58 51°13.929 2°53.015 19.814 4.253551 31.400248 -0.965744
2010-06-11 07:12:02 51°13.92 2°52.994 19.8218 4.253551 31.400248 -0.965744
2010-06-11 07:12:07 51°13.908 2°52.968 19.7934 4.25429 31.405792 -0.965744
2010-06-11 07:12:12 51°13.896 2°52.943 19.8274 4.254923 31.412635 -0.965744
2010-06-11 07:12:18 51°13.883 2°52.912 19.8057 4.254079 31.40297 -1.000568
2010-06-11 07:12:23 51°13.871 2°52.886 19.8312 4.253762 31.401445 -0.965744
2010-06-11 07:12:27 51°13.862 2°52.865 19.8116 4.25545 31.415356 -0.965744
2010-06-11 07:12:32 51°13.85 2°52.84 19.8232 4.25545 31.415356 -0.965744
2010-06-11 07:12:38 51°13.836 2°52.808 19.8117 4.253129 31.395145 -0.965744
2010-06-11 07:12:43 51°13.824 2°52.783 19.8263 4.254501 31.406989 -0.965744
2010-06-11 07:12:47 51°13.815 2°52.762 19.8112 4.253868 31.402315 -1.000568
2010-06-11 07:12:52 51°13.803 2°52.736 19.8033 4.255345 31.414487 -0.965744
2010-06-11 07:12:58 51°13.789 2°52.705 19.8184 4.252707 31.390584 -1.000568
2010-06-11 07:13:02 51°13.779 2°52.685 19.8221 4.252707 31.390584 -1.000568
2010-06-11 07:13:08 51°13.766 2°52.653 19.8202 4.254817 31.411766 -0.965744
2010-06-11 07:13:13 51°13.754 2°52.629 19.7835 4.253551 31.399164 -0.965744
2010-06-11 07:13:18 51°13.742 2°52.602 19.8358 4.253129 31.398396 -0.965744
2010-06-11 07:13:22 51°13.734 2°52.581 19.8249 4.25545 31.41373 -0.965744
2010-06-11 07:13:27 51°13.721 2°52.557 19.8453 4.253234 31.397098 -0.965744
2010-06-11 07:13:33 51°13.707 2°52.525 19.83 4.253234 31.397098 -0.965744
2010-06-11 07:13:38 51°13.696 2°52.499 19.8322 4.254712 31.40927 -0.965744
2010-06-11 07:13:42 51°13.687 2°52.478 19.8159 4.254606 31.406775 -0.965744
2010-06-11 07:13:47 51°13.675 2°52.453 19.8433 4.25429 31.405792 -0.965744
2010-06-11 07:13:53 51°13.661 2°52.422 19.84 4.254501 31.406989 -1.000568
2010-06-11 07:13:58 51°13.649 2°52.395 19.8495 4.253129 31.395687 -1.000568
2010-06-11 07:14:02 51°13.64 2°52.375 19.8318 4.253129 31.395687 -1.000568
2010-06-11 07:14:08 51°13.626 2°52.344 19.8423 4.255239 31.415244 -1.000568
2010-06-11 07:14:12 51°13.616 2°52.324 19.8154 4.254184 31.404923 -0.965744
2010-06-11 07:14:18 51°13.602 2°52.293 19.833 4.253973 31.404268 -0.965744
2010-06-11 07:14:22 51°13.593 2°52.272 19.8236 4.254606 31.408401 -0.965744
2010-06-11 07:14:28 51°13.578 2°52.242 19.8442 4.253762 31.401987 -0.965744
2010-06-11 07:14:32 51°13.569 2°52.22 19.8185 4.253762 31.401987 -0.965744
2010-06-11 07:14:37 51°13.557 2°52.195 19.8356 4.254501 31.405905 -1.000568
2010-06-11 07:14:43 51°13.543 2°52.163 19.8399 4.253551 31.399706 -1.000568
2010-06-11 07:14:48 51°13.532 2°52.138 19.8351 4.25429 31.40525 -0.965744
2010-06-11 07:14:52 51°13.522 2°52.118 19.8452 4.254079 31.405137 -0.965744
2010-06-11 07:14:58 51°13.508 2°52.086 19.8442 4.254501 31.408073 -0.965744
2010-06-11 07:15:03 51°13.497 2°52.06 19.8324 4.254501 31.408073 -0.965744
2010-06-11 07:15:08 51°13.485 2°52.035 19.8428 4.254184 31.404923 -0.965744
2010-06-11 07:15:12 51°13.476 2°52.014 19.836 4.253551 31.400248 -0.965744
2010-06-11 07:15:18 51°13.463 2°51.985 19.839 4.254184 31.406549 -0.965744
2010-06-11 07:15:22 51°13.453 2°51.966 19.8331 4.253446 31.401004 -1.000568
2010-06-11 07:15:28 51°13.44 2°51.938 19.8483 4.254923 31.412635 -0.965744
2010-06-11 07:15:32 51°13.432 2°51.92 19.8249 4.254923 31.412635 -0.965744
2010-06-11 07:15:38 51°13.419 2°51.893 19.8333 4.254079 31.406221 -0.965744
2010-06-11 07:15:42 51°13.411 2°51.876 19.849 4.253973 31.404268 -1.000568
2010-06-11 07:15:47 51°13.401 2°51.854 19.8567 4.254606 31.409485 -0.965744
2010-06-11 07:15:52 51°13.391 2°51.833 19.8575 4.253657 31.402201 -0.965744
2010-06-11 07:15:58 51°13.38 2°51.809 19.8621 4.254079 31.406221 -0.965744
2010-06-11 07:16:03 51°13.371 2°51.789 19.849 4.254079 31.406221 -0.965744
2010-06-11 07:16:07 51°13.364 2°51.773 19.8371 4.254712 31.411438 -0.965744
2010-06-11 07:16:12 51°13.355 2°51.754 19.86 4.253657 31.402743 -1.000568
2010-06-11 07:16:18 51°13.345 2°51.731 19.8628 4.253973 31.405352 -0.965744
2010-06-11 07:16:22 51°13.338 2°51.716 19.8605 4.25429 31.40796 -1.000568
2010-06-11 07:16:28 51°13.327 2°51.694 19.8546 4.252918 31.395032 -0.965744
2010-06-11 07:16:32 51°13.32 2°51.68 19.8567 4.252918 31.395032 -0.965744
2010-06-11 07:16:38 51°13.31 2°51.658 19.8615 4.254184 31.407633 -0.965744
2010-06-11 07:16:42 51°13.304 2°51.644 19.8678 4.254079 31.405679 -0.965744
2010-06-11 07:16:48 51°13.294 2°51.621 19.8691 4.253657 31.402201 -0.965744
2010-06-11 07:16:52 51°13.287 2°51.607 19.8533 4.253657 31.402743 -1.000568
2010-06-11 07:16:57 51°13.279 2°51.589 19.8771 4.254184 31.408175 -0.965744
2010-06-11 07:17:03 51°13.27 2°51.567 19.8365 4.254184 31.408175 -0.965744
2010-06-11 07:17:08 51°13.261 2°51.55 19.8821 4.254184 31.407091 -0.965744
2010-06-11 07:17:12 51°13.255 2°51.536 19.8362 4.253868 31.404482 -0.965744
2010-06-11 07:17:18 51°13.245 2°51.515 19.8736 4.253973 31.405894 -0.965744
2010-06-11 07:17:22 51°13.239 2°51.5 19.8485 4.253657 31.401118 -1.000568
2010-06-11 07:17:28 51°13.23 2°51.482 19.8777 4.253446 31.401546 -1.000568
2010-06-11 07:17:32 51°13.224 2°51.469 19.8655 4.253446 31.401546 -1.000568
2010-06-11 07:17:38 51°13.216 2°51.452 19.8734 4.253868 31.405566 -0.93092
2010-06-11 07:17:42 51°13.211 2°51.441 19.8531 4.25334 31.400677 -0.965744
2010-06-11 07:17:47 51°13.205 2°51.428 19.873 4.253762 31.404697 -0.965744
2010-06-11 07:17:52 51°13.201 2°51.414 19.8643 4.253234 31.398182 -0.965744
2010-06-11 07:17:58 51°13.195 2°51.399 19.8743 4.253129 31.397312 -0.965744
2010-06-11 07:18:02 51°13.192 2°51.389 19.8654 4.253129 31.397312 -0.965744
2010-06-11 07:18:07 51°13.189 2°51.377 19.8693 4.254184 31.406549 -0.93092
2010-06-11 07:18:13 51°13.185 2°51.363 19.8629 4.253129 31.397854 -0.93092
2010-06-11 07:18:18 51°13.183 2°51.351 19.8654 4.254184 31.407633 -0.965744
2010-06-11 07:18:23 51°13.182 2°51.34 19.7827 4.253762 31.404697 -1.000568
2010-06-11 07:18:27 51°13.181 2°51.331 19.8082 4.253129 31.39948 -0.965744
2010-06-11 07:18:32 51°13.181 2°51.32 19.8681 4.253129 31.39948 -0.965744
2010-06-11 07:18:38 51°13.181 2°51.307 19.8664 4.253868 31.405566 -1.000568
2010-06-11 07:18:43 51°13.182 2°51.297 19.8621 4.253023 31.399152 -0.965744
2010-06-11 07:18:47 51°13.182 2°51.289 19.8579 4.254501 31.410241 -1.000568
2010-06-11 07:18:52 51°13.184 2°51.28 19.8588 4.25429 31.409045 -1.000568
2010-06-11 07:18:57 51°13.185 2°51.272 19.8557 4.252812 31.397955 -0.965744
2010-06-11 07:19:03 51°13.188 2°51.262 19.8559 4.252812 31.397955 -0.965744
2010-06-11 07:19:08 51°13.19 2°51.254 19.859 4.253551 31.404042 -1.000568
2010-06-11 07:19:12 51°13.193 2°51.249 19.8594 4.253868 31.40665 -0.965744
2010-06-11 07:19:17 51°13.196 2°51.242 19.8605 4.254395 31.410456 -0.965744
2010-06-11 07:19:23 51°13.2 2°51.235 19.8614 4.253973 31.406436 -0.965744
2010-06-11 07:19:28 51°13.204 2°51.23 19.8643 4.254079 31.406763 -1.000568
2010-06-11 07:19:32 51°13.208 2°51.227 19.8669 4.254079 31.406763 -1.000568
2010-06-11 07:19:37 51°13.212 2°51.224 19.8676 4.253129 31.398938 -1.000568
2010-06-11 07:19:42 51°13.217 2°51.221 19.8689 4.254079 31.406763 -1.000568
2010-06-11 07:19:48 51°13.224 2°51.22 19.8708 4.253023 31.39861 -0.965744
2010-06-11 07:19:52 51°13.228 2°51.22 19.8726 4.253551 31.4035 -0.965744
2010-06-11 07:19:58 51°13.234 2°51.222 19.8748 4.253235 31.401433 -0.965744
2010-06-11 07:20:03 51°13.238 2°51.224 19.8778 4.253235 31.401433 -0.965744
2010-06-11 07:20:07 51°13.242 2°51.227 19.8778 4.253234 31.400349 -1.000568
2010-06-11 07:20:12 51°13.246 2°51.232 19.8773 4.253129 31.400022 -0.965744
2010-06-11 07:20:18 51°13.25 2°51.239 19.8797 4.253023 31.398068 -1.000568
2010-06-11 07:20:23 51°13.254 2°51.245 19.8798 4.253446 31.402088 -0.965744
2010-06-11 07:20:27 51°13.257 2°51.251 19.8812 4.253551 31.404042 -0.93092
2010-06-11 07:20:32 51°13.262 2°51.259 19.8833 4.253551 31.404042 -0.93092
2010-06-11 07:20:38 51°13.268 2°51.27 19.8844 4.253973 31.406978 -0.965744
2010-06-11 07:20:43 51°13.274 2°51.279 19.8868 4.255239 31.416328 -0.965744
2010-06-11 07:20:47 51°13.279 2°51.287 19.8872 4.252812 31.397955 -0.965744
2010-06-11 07:20:52 51°13.286 2°51.297 19.8884 4.253868 31.405024 -0.965744
2010-06-11 07:20:58 51°13.295 2°51.31 19.8876 4.253129 31.398938 -0.965744
2010-06-11 07:21:03 51°13.302 2°51.32 19.8897 4.253129 31.398938 -0.965744
2010-06-11 07:21:07 51°13.309 2°51.329 19.8936 4.253868 31.404482 -0.965744
2010-06-11 07:21:12 51°13.316 2°51.341 19.8967 4.253657 31.402201 -0.965744
2010-06-11 07:21:17 51°13.324 2°51.353 19.9019 4.253023 31.395901 -1.000568
2010-06-11 07:21:23 51°13.331 2°51.369 19.8978 4.254079 31.404053 -0.965744
2010-06-11 07:21:28 51°13.337 2°51.382 19.9011 4.253868 31.403398 -0.965744
2010-06-11 07:21:32 51°13.341 2°51.393 19.9032 4.253868 31.403398 -0.965744
2010-06-11 07:21:37 51°13.347 2°51.405 19.904 4.252496 31.393721 -0.965744
2010-06-11 07:21:42 51°13.351 2°51.418 19.9053 4.25334 31.400677 -0.965744
2010-06-11 07:21:48 51°13.357 2°51.432 19.909 4.253023 31.39861 -0.965744
2010-06-11 07:21:52 51°13.361 2°51.441 19.908 4.25334 31.402845 -1.000568
2010-06-11 07:21:57 51°13.366 2°51.45 19.9116 4.253235 31.403601 -0.965744
2010-06-11 07:22:02 51°13.371 2°51.457 19.9102 4.253235 31.403601 -0.965744
2010-06-11 07:22:07 51°13.377 2°51.463 19.9126 4.253551 31.407294 -0.965744
2010-06-11 07:22:12 51°13.382 2°51.467 19.9144 4.253024 31.402946 -0.965744
2010-06-11 07:22:18 51°13.388 2°51.472 19.914 4.252918 31.401535 -0.965744
2010-06-11 07:22:22 51°13.392 2°51.473 19.915 4.25334 31.403387 -1.000568
2010-06-11 07:22:27 51°13.397 2°51.475 19.9183 4.25334 31.402303 -0.965744
2010-06-11 07:22:32 51°13.401 2°51.476 19.915 4.25334 31.402303 -0.965744
2010-06-11 07:22:38 51°13.407 2°51.476 19.9171 4.25334 31.403387 -0.965744
2010-06-11 07:22:43 51°13.411 2°51.476 19.9176 4.253551 31.4035 -1.000568
2010-06-11 07:22:47 51°13.414 2°51.476 19.9223 4.252496 31.395347 -1.000568
2010-06-11 07:22:52 51°13.418 2°51.475 19.9249 4.253868 31.406108 -0.965744
2010-06-11 07:22:58 51°13.422 2°51.474 19.9256 4.252918 31.399367 -0.965744
2010-06-11 07:23:03 51°13.424 2°51.473 19.9272 4.252918 31.399367 -0.965744
2010-06-11 07:23:07 51°13.426 2°51.471 19.9271 4.253129 31.401648 -1.000568
2010-06-11 07:23:12 51°13.428 2°51.469 19.928 4.252707 31.398711 -0.965744
2010-06-11 07:23:18 51°13.429 2°51.467 19.9308 4.252812 31.399581 -0.965744
2010-06-11 07:23:23 51°13.429 2°51.465 19.9324 4.252918 31.399367 -1.000568
2010-06-11 07:23:27 51°13.429 2°51.464 19.932 4.253551 31.404042 -1.000568
2010-06-11 07:23:32 51°13.429 2°51.462 19.9331 4.253551 31.404042 -1.000568
2010-06-11 07:23:37 51°13.429 2°51.461 19.935 4.253023 31.39861 -0.965744
2010-06-11 07:23:43 51°13.428 2°51.459 19.9355 4.253234 31.399265 -0.965744
2010-06-11 07:23:47 51°13.428 2°51.458 19.9377 4.25334 31.400677 -0.965744
2010-06-11 07:23:53 51°13.428 2°51.457 19.9375 4.25334 31.400135 -0.965744
2010-06-11 07:23:58 51°13.427 2°51.456 19.9372 4.253129 31.398396 -1.000568
2010-06-11 07:24:02 51°13.427 2°51.455 19.938 4.253129 31.398396 -1.000568
2010-06-11 07:24:07 51°13.426 2°51.454 19.9432 4.253551 31.402958 -0.965744
2010-06-11 07:24:13 51°13.426 2°51.453 19.9432 4.253762 31.404155 -0.93092
2010-06-11 07:24:18 51°13.425 2°51.451 19.9452 4.253551 31.4035 -0.965744
2010-06-11 07:24:22 51°13.425 2°51.45 19.9484 4.252707 31.396544 -0.965744
2010-06-11 07:24:27 51°13.424 2°51.448 19.9484 4.253446 31.40263 -0.965744
2010-06-11 07:24:33 51°13.423 2°51.447 19.9466 4.253446 31.40263 -0.965744
2010-06-11 07:24:38 51°13.423 2°51.446 19.9486 4.252707 31.396544 -1.000568
2010-06-11 07:24:42 51°13.422 2°51.445 19.9516 4.253023 31.399152 -1.000568
2010-06-11 07:24:47 51°13.422 2°51.444 19.952 4.253657 31.403285 -0.965744
2010-06-11 07:24:53 51°13.421 2°51.443 19.9526 4.25334 31.400677 -0.965744
2010-06-11 07:24:58 51°13.42 2°51.442 19.9541 4.253868 31.405024 -0.965744
2010-06-11 07:25:02 51°13.42 2°51.441 19.9565 4.253868 31.405024 -0.965744
2010-06-11 07:25:07 51°13.419 2°51.44 19.9582 4.253973 31.405352 -0.965744
2010-06-11 07:25:12 51°13.419 2°51.44 19.9611 4.253551 31.402416 -1.000568
2010-06-11 07:25:18 51°13.418 2°51.439 19.9618 4.252918 31.397741 -0.965744
2010-06-11 07:25:22 51°13.417 2°51.438 19.9615 4.253446 31.402088 -0.965744
2010-06-11 07:25:27 51°13.417 2°51.437 19.9605 4.253762 31.404697 -0.965744
2010-06-11 07:25:32 51°13.416 2°51.436 19.9644 4.253762 31.404697 -0.965744
2010-06-11 07:25:38 51°13.415 2°51.435 19.9648 4.252918 31.397741 -0.965744
2010-06-11 07:25:42 51°13.415 2°51.434 19.966 4.253234 31.400891 -0.965744
2010-06-11 07:25:47 51°13.414 2°51.434 19.9649 4.253762 31.404697 -0.965744
2010-06-11 07:25:52 51°13.413 2°51.433 19.9675 4.25334 31.401761 -0.93092
2010-06-11 07:25:58 51°13.413 2°51.432 19.9693 4.252707 31.396544 -0.965744
2010-06-11 07:26:03 51°13.412 2°51.431 19.9708 4.252707 31.396544 -0.965744
2010-06-11 07:26:07 51°13.411 2°51.431 19.9738 4.253129 31.39948 -1.000568
2010-06-11 07:26:12 51°13.411 2°51.43 19.9749 4.253551 31.402416 -0.965744
2010-06-11 07:26:18 51°13.41 2°51.429 19.9745 4.253234 31.400349 -1.000568
2010-06-11 07:26:23 51°13.409 2°51.428 19.9762 4.253446 31.401546 -0.965744
2010-06-11 07:26:27 51°13.409 2°51.428 19.9775 4.252812 31.397413 -0.93092
2010-06-11 07:26:32 51°13.408 2°51.427 19.9766 4.252812 31.397413 -0.93092
2010-06-11 07:26:38 51°13.407 2°51.426 19.9786 4.252918 31.397741 -1.000568
2010-06-11 07:26:42 51°13.406 2°51.426 19.9814 4.253023 31.39861 -0.965744
2010-06-11 07:26:47 51°13.406 2°51.425 19.9799 4.25334 31.401761 -0.965744
2010-06-11 07:26:52 51°13.405 2°51.424 19.9823 4.25334 31.401761 -0.965744
2010-06-11 07:26:58 51°13.404 2°51.423 19.9847 4.25334 31.401219 -0.965744
2010-06-11 07:27:03 51°13.403 2°51.423 19.9859 4.25334 31.401219 -0.965744
2010-06-11 07:27:07 51°13.403 2°51.422 19.9855 4.253446 31.402088 -0.965744
2010-06-11 07:27:13 51°13.402 2°51.421 19.9886 4.25334 31.401219 -0.965744
2010-06-11 07:27:18 51°13.401 2°51.42 19.9864 4.253551 31.402416 -1.000568
2010-06-11 07:27:22 51°13.4 2°51.42 19.9916 4.25334 31.401219 -0.965744
2010-06-11 07:27:27 51°13.399 2°51.419 19.9925 4.253868 31.405566 -1.000568
2010-06-11 07:27:32 51°13.398 2°51.419 19.9935 4.253868 31.405566 -1.000568
2010-06-11 07:27:38 51°13.397 2°51.418 19.9935 4.253129 31.39948 -1.000568
2010-06-11 07:27:42 51°13.397 2°51.418 19.9927 4.252812 31.397413 -0.965744
2010-06-11 07:27:47 51°13.396 2°51.417 19.9944 4.25334 31.401761 -1.000568
2010-06-11 07:27:52 51°13.395 2°51.417 19.9975 4.252707 31.396002 -0.965744
2010-06-11 07:27:57 51°13.394 2°51.416 20.0005 4.252812 31.396871 -0.965744
2010-06-11 07:28:02 51°13.393 2°51.415 20.0028 4.252812 31.396871 -0.965744
2010-06-11 07:28:08 51°13.392 2°51.415 20.0048 4.253762 31.404697 -0.965744
2010-06-11 07:28:12 51°13.391 2°51.414 20.0057 4.253446 31.401546 -1.000568
2010-06-11 07:28:18 51°13.39 2°51.414 20.0061 4.253657 31.403285 -1.000568
2010-06-11 07:28:22 51°13.389 2°51.413 20.0052 4.253657 31.403285 -1.000568
2010-06-11 07:28:28 51°13.388 2°51.413 20.007 4.253023 31.39861 -0.93092
2010-06-11 07:28:32 51°13.388 2°51.412 20.0084 4.253023 31.39861 -0.93092
2010-06-11 07:28:38 51°13.386 2°51.411 20.0071 4.25334 31.401219 -0.93092
2010-06-11 07:28:42 51°13.386 2°51.411 20.009 4.253551 31.402958 -1.000568
2010-06-11 07:28:48 51°13.385 2°51.41 20.0123 4.252812 31.396871 -0.965744
2010-06-11 07:28:52 51°13.384 2°51.409 20.012 4.252601 31.395132 -1.000568
2010-06-11 07:28:58 51°13.383 2°51.408 20.0102 4.253551 31.402416 -1.000568
2010-06-11 07:29:02 51°13.382 2°51.408 20.0138 4.253551 31.402416 -1.000568
2010-06-11 07:29:07 51°13.382 2°51.407 20.0172 4.254079 31.406763 -0.965744
2010-06-11 07:29:13 51°13.38 2°51.406 20.0176 4.25334 31.400135 -0.965744
2010-06-11 07:29:18 51°13.38 2°51.406 20.0167 4.253446 31.401004 -0.965744
2010-06-11 07:29:22 51°13.379 2°51.405 20.0205 4.253551 31.402416 -0.965744
2010-06-11 07:29:27 51°13.378 2°51.405 20.0228 4.253129 31.398938 -0.965744
2010-06-11 07:29:32 51°13.377 2°51.404 20.0226 4.253129 31.398938 -0.965744
2010-06-11 07:29:38 51°13.376 2°51.403 20.0245 4.252812 31.396871 -0.965744
2010-06-11 07:29:42 51°13.376 2°51.402 20.0268 4.25334 31.401219 -0.965744
2010-06-11 07:29:47 51°13.375 2°51.402 20.0243 4.253446 31.401546 -1.000568
2010-06-11 07:29:52 51°13.374 2°51.401 20.0313 4.253657 31.403285 -1.000568
2010-06-11 07:29:58 51°13.373 2°51.4 20.0294 4.25334 31.401219 -0.965744
2010-06-11 07:30:02 51°13.373 2°51.399 20.0316 4.25334 31.401219 -0.965744
2010-06-11 07:30:08 51°13.372 2°51.398 20.0332 4.253446 31.401004 -0.93092
2010-06-11 07:30:12 51°13.372 2°51.398 20.0354 4.253023 31.39861 -1.000568
2010-06-11 07:30:17 51°13.371 2°51.397 20.0341 4.253129 31.39948 -1.000568
2010-06-11 07:30:23 51°13.37 2°51.396 20.0363 4.252918 31.398283 -0.965744
2010-06-11 07:30:28 51°13.37 2°51.396 20.0384 4.253129 31.39948 -1.000568
2010-06-11 07:30:32 51°13.369 2°51.395 20.0408 4.253129 31.39948 -1.000568
2010-06-11 07:30:37 51°13.368 2°51.395 20.0435 4.253129 31.398938 -0.965744
2010-06-11 07:30:43 51°13.368 2°51.394 20.0404 4.253762 31.404155 -0.965744
2010-06-11 07:30:48 51°13.367 2°51.393 20.0411 4.253657 31.403285 -0.965744
2010-06-11 07:30:52 51°13.366 2°51.392 20.0436 4.253551 31.402958 -0.965744
2010-06-11 07:30:58 51°13.366 2°51.392 20.0405 4.253446 31.402088 -0.965744
2010-06-11 07:31:02 51°13.365 2°51.391 20.0467 4.253446 31.402088 -0.965744
2010-06-11 07:31:07 51°13.365 2°51.391 20.05 4.253657 31.403827 -0.965744
2010-06-11 07:31:12 51°13.364 2°51.39 20.0485 4.253129 31.398938 -0.965744
2010-06-11 07:31:18 51°13.363 2°51.389 20.0502 4.252918 31.397741 -1.000568
2010-06-11 07:31:23 51°13.363 2°51.389 20.0529 4.25334 31.401219 -0.93092
2010-06-11 07:31:27 51°13.362 2°51.388 20.0536 4.253023 31.39861 -0.965744
2010-06-11 07:31:32 51°13.362 2°51.387 20.0544 4.253023 31.39861 -0.965744
2010-06-11 07:31:38 51°13.362 2°51.387 20.0569 4.253129 31.39948 -0.965744
2010-06-11 07:31:43 51°13.362 2°51.386 20.0582 4.252918 31.397741 -1.000568
2010-06-11 07:31:47 51°13.362 2°51.386 20.0612 4.252918 31.398283 -1.000568
2010-06-11 07:31:52 51°13.363 2°51.384 20.0589 4.25334 31.401761 -0.965744
2010-06-11 07:31:58 51°13.364 2°51.382 20.0643 4.25334 31.401219 -0.965744
2010-06-11 07:32:03 51°13.365 2°51.38 20.0684 4.25334 31.401219 -0.965744
2010-06-11 07:32:07 51°13.366 2°51.377 20.0702 4.253657 31.403827 -1.000568
2010-06-11 07:32:12 51°13.368 2°51.374 20.0648 4.252601 31.395674 -1.000568
2010-06-11 07:32:18 51°13.369 2°51.37 20.0705 4.253551 31.402958 -0.965744
2010-06-11 07:32:23 51°13.371 2°51.366 20.073 4.253023 31.39861 -0.965744
2010-06-11 07:32:28 51°13.372 2°51.361 20.0732 4.254501 31.410784 -0.965744
2010-06-11 07:32:32 51°13.373 2°51.357 20.0739 4.254501 31.410784 -0.965744
2010-06-11 07:32:37 51°13.374 2°51.352 20.075 4.253234 31.400891 -1.000568
2010-06-11 07:32:43 51°13.375 2°51.345 20.0782 4.253446 31.40263 -0.965744
2010-06-11 07:32:48 51°13.376 2°51.339 20.0784 4.25429 31.408502 -0.965744
2010-06-11 07:32:52 51°13.376 2°51.335 20.0823 4.252179 31.392738 -0.965744
2010-06-11 07:32:57 51°13.376 2°51.328 20.0848 4.253551 31.404584 -0.965744
2010-06-11 07:33:03 51°13.377 2°51.32 20.0787 4.253551 31.404584 -0.965744
2010-06-11 07:33:08 51°13.377 2°51.313 20.0758 4.254606 31.412195 -0.965744
2010-06-11 07:33:12 51°13.376 2°51.307 20.0797 4.252918 31.398283 -0.965744
2010-06-11 07:33:18 51°13.375 2°51.298 20.0863 4.252496 31.394263 -0.965744
2010-06-11 07:33:22 51°13.375 2°51.292 20.0854 4.253234 31.400349 -1.000568
2010-06-11 07:33:27 51°13.373 2°51.285 20.0904 4.252179 31.391654 -0.965744
2010-06-11 07:33:32 51°13.372 2°51.277 20.0913 4.252179 31.391654 -0.965744
2010-06-11 07:33:38 51°13.369 2°51.268 20.0929 4.253446 31.402088 -0.965744
2010-06-11 07:33:43 51°13.367 2°51.261 20.0886 4.253234 31.399807 -1.000568
2010-06-11 07:33:47 51°13.365 2°51.255 20.088 4.252496 31.394263 -0.965744
2010-06-11 07:33:52 51°13.362 2°51.248 20.0906 4.253973 31.406978 -1.000568
2010-06-11 07:33:58 51°13.358 2°51.24 20.089 4.253446 31.402088 -0.965744
2010-06-11 07:34:03 51°13.354 2°51.234 20.0944 4.253446 31.402088 -0.965744
2010-06-11 07:34:07 51°13.351 2°51.23 20.0933 4.252601 31.395674 -0.965744
2010-06-11 07:34:12 51°13.347 2°51.225 20.0925 4.252601 31.395674 -0.93092
2010-06-11 07:34:18 51°13.341 2°51.22 20.0963 4.253551 31.401874 -1.000568
2010-06-11 07:34:23 51°13.337 2°51.216 20.1003 4.25334 31.399593 -1.000568
2010-06-11 07:34:27 51°13.333 2°51.214 20.1066 4.253023 31.397526 -0.93092
2010-06-11 07:34:32 51°13.328 2°51.212 20.1091 4.253023 31.397526 -0.93092
2010-06-11 07:34:37 51°13.323 2°51.21 20.1064 4.253023 31.396985 -0.965744
2010-06-11 07:34:43 51°13.317 2°51.209 20.1108 4.252707 31.394376 -1.000568
2010-06-11 07:34:47 51°13.314 2°51.207 20.1093 4.252918 31.396115 -0.965744
2010-06-11 07:34:51 51°13.31 2°51.207 20.1097 4.252918 31.395573 -0.965744
2010-06-11 07:34:58 51°13.303 2°51.206 20.1055 4.252707 31.392751 -0.965744
2010-06-11 07:35:03 51°13.298 2°51.206 20.1116 4.252707 31.392751 -0.965744
2010-06-11 07:35:07 51°13.293 2°51.206 20.1158 4.252918 31.395032 -0.965744
2010-06-11 07:35:13 51°13.287 2°51.206 20.1123 4.25239 31.391226 -1.000568
2010-06-11 07:35:18 51°13.282 2°51.207 20.1153 4.252812 31.394162 -1.000568
2010-06-11 07:35:22 51°13.278 2°51.207 20.1154 4.252812 31.394704 -1.000568
2010-06-11 07:35:27 51°13.273 2°51.207 20.119 4.252707 31.394376 -0.965744
2010-06-11 07:35:33 51°13.266 2°51.207 20.1203 4.252707 31.394376 -0.965744
2010-06-11 07:35:38 51°13.261 2°51.207 20.1178 4.253129 31.397854 -0.965744
2010-06-11 07:35:42 51°13.257 2°51.207 20.1279 4.252812 31.395788 -0.965744
2010-06-11 07:35:47 51°13.252 2°51.207 20.1217 4.252707 31.393834 -0.965744
2010-06-11 07:35:53 51°13.245 2°51.207 20.1229 4.25239 31.392852 -1.000568
2010-06-11 07:35:58 51°13.24 2°51.207 20.1287 4.25239 31.393393 -1.000568
2010-06-11 07:36:02 51°13.236 2°51.207 20.1349 4.25239 31.393393 -1.000568
2010-06-11 07:36:07 51°13.231 2°51.207 20.1327 4.252496 31.393179 -0.965744
2010-06-11 07:36:13 51°13.225 2°51.207 20.1353 4.252707 31.396002 -1.000568
2010-06-11 07:36:18 51°13.22 2°51.206 20.1314 4.253129 31.398396 -0.965744
2010-06-11 07:36:22 51°13.216 2°51.206 20.1351 4.252496 31.393721 -0.965744
2010-06-11 07:36:27 51°13.211 2°51.206 20.1401 4.252707 31.396002 -0.965744
2010-06-11 07:36:32 51°13.206 2°51.205 20.1424 4.252707 31.396002 -0.965744
2010-06-11 07:36:38 51°13.2 2°51.205 20.138 4.252601 31.39459 -1.000568
2010-06-11 07:36:42 51°13.196 2°51.205 20.1436 4.252285 31.391982 -0.965744
2010-06-11 07:36:47 51°13.191 2°51.204 20.1411 4.252601 31.395132 -0.965744
2010-06-11 07:36:52 51°13.186 2°51.204 20.1495 4.25239 31.393393 -0.965744
2010-06-11 07:36:57 51°13.181 2°51.204 20.144 4.252918 31.397199 -0.965744
2010-06-11 07:37:03 51°13.176 2°51.203 20.1483 4.252918 31.397199 -0.965744
2010-06-11 07:37:08 51°13.171 2°51.203 20.149 4.252812 31.396871 -0.965744
2010-06-11 07:37:12 51°13.167 2°51.203 20.1533 4.252601 31.395132 -1.000568
2010-06-11 07:37:17 51°13.162 2°51.202 20.1563 4.252285 31.392524 -1.000568
2010-06-11 07:37:23 51°13.156 2°51.202 20.1562 4.25334 31.400677 -0.93092
2010-06-11 07:37:28 51°13.152 2°51.201 20.1582 4.25239 31.393393 -0.965744
2010-06-11 07:37:32 51°13.148 2°51.201 20.1609 4.25239 31.393393 -0.965744
2010-06-11 07:37:37 51°13.143 2°51.2 20.1599 4.252285 31.393066 -1.000568
2010-06-11 07:37:42 51°13.138 2°51.2 20.1579 4.252707 31.39546 -1.000568
2010-06-11 07:37:48 51°13.133 2°51.199 20.1656 4.25239 31.393393 -0.965744
2010-06-11 07:37:52 51°13.129 2°51.198 20.1674 4.252707 31.39546 -0.965744
2010-06-11 07:37:58 51°13.123 2°51.198 20.1664 4.252918 31.396657 -0.965744
2010-06-11 07:38:03 51°13.118 2°51.197 20.1709 4.252918 31.396657 -0.965744
2010-06-11 07:38:08 51°13.113 2°51.197 20.165 4.252285 31.392524 -0.965744
2010-06-11 07:38:12 51°13.11 2°51.196 20.1719 4.25239 31.392852 -1.000568
2010-06-11 07:38:18 51°13.104 2°51.196 20.1683 4.25239 31.392852 -0.965744
2010-06-11 07:38:23 51°13.099 2°51.195 20.1761 4.252074 31.390785 -0.965744
2010-06-11 07:38:27 51°13.095 2°51.195 20.177 4.252496 31.393721 -0.965744
2010-06-11 07:38:32 51°13.091 2°51.194 20.1757 4.252496 31.393721 -0.965744
2010-06-11 07:38:38 51°13.085 2°51.193 20.1798 4.252812 31.396329 -0.965744
2010-06-11 07:38:43 51°13.08 2°51.192 20.1817 4.25239 31.39231 -1.000568
2010-06-11 07:38:47 51°13.076 2°51.192 20.1832 4.252179 31.391654 -1.000568
2010-06-11 07:38:52 51°13.071 2°51.191 20.1782 4.252812 31.396329 -0.965744
2010-06-11 07:38:58 51°13.065 2°51.189 20.1814 4.252074 31.390243 -1.000568
2010-06-11 07:39:03 51°13.059 2°51.188 20.1818 4.252074 31.390243 -1.000568
2010-06-11 07:39:07 51°13.055 2°51.187 20.1916 4.252179 31.392196 -1.000568
2010-06-11 07:39:12 51°13.05 2°51.186 20.1777 4.252285 31.392524 -0.965744
2010-06-11 07:39:17 51°13.044 2°51.184 20.187 4.251863 31.389046 -1.000568
2010-06-11 07:39:23 51°13.037 2°51.182 20.1951 4.252707 31.394918 -1.000568
2010-06-11 07:39:28 51°13.032 2°51.179 20.1983 4.252285 31.39144 -1.000568
2010-06-11 07:39:32 51°13.028 2°51.177 20.1972 4.252285 31.39144 -1.000568
2010-06-11 07:39:37 51°13.022 2°51.174 20.1948 4.25239 31.393393 -0.965744
2010-06-11 07:39:43 51°13.016 2°51.171 20.1986 4.252601 31.39459 -0.965744
2010-06-11 07:39:48 51°13.011 2°51.168 20.2007 4.252074 31.390785 -0.965744
2010-06-11 07:39:52 51°13.006 2°51.165 20.1993 4.252601 31.395132 -0.965744
2010-06-11 07:39:57 51°13.001 2°51.161 20.2065 4.251968 31.390457 -0.965744
2010-06-11 07:40:02 51°12.996 2°51.158 20.2049 4.251968 31.390457 -0.965744
2010-06-11 07:40:08 51°12.99 2°51.153 20.2118 4.252496 31.393721 -0.965744
2010-06-11 07:40:12 51°12.986 2°51.149 20.2001 4.251863 31.389588 -0.965744
2010-06-11 07:40:18 51°12.98 2°51.144 20.2136 4.252601 31.395674 -0.965744
2010-06-11 07:40:22 51°12.976 2°51.14 20.2102 4.252707 31.39546 -1.000568
2010-06-11 07:40:27 51°12.971 2°51.135 20.2187 4.251546 31.386438 -0.965744
2010-06-11 07:40:32 51°12.967 2°51.131 20.2113 4.251546 31.386438 -0.965744
2010-06-11 07:40:38 51°12.961 2°51.125 20.221 4.252496 31.394805 -0.965744
2010-06-11 07:40:43 51°12.956 2°51.12 20.2106 4.252179 31.391654 -0.965744
2010-06-11 07:40:47 51°12.952 2°51.116 20.2155 4.251863 31.389588 -1.000568
2010-06-11 07:40:52 51°12.948 2°51.11 20.2185 4.253657 31.404369 -1.000568
2010-06-11 07:40:58 51°12.942 2°51.103 20.2233 4.251863 31.389046 -1.000568
2010-06-11 07:41:03 51°12.938 2°51.098 20.2281 4.251863 31.389046 -1.000568
2010-06-11 07:41:07 51°12.934 2°51.093 20.231 4.252179 31.392196 -0.965744
2010-06-11 07:41:12 51°12.93 2°51.088 20.2262 4.251968 31.390999 -1.000568
2010-06-11 07:41:18 51°12.925 2°51.08 20.228 4.25239 31.395019 -1.000568
2010-06-11 07:41:23 51°12.92 2°51.075 20.2316 4.251968 31.391541 -0.965744
2010-06-11 07:41:27 51°12.917 2°51.069 20.2325 4.251863 31.39013 -0.965744
2010-06-11 07:41:32 51°12.913 2°51.063 20.2315 4.251863 31.39013 -0.965744
2010-06-11 07:41:37 51°12.909 2°51.057 20.2404 4.251757 31.388718 -1.000568
2010-06-11 07:41:43 51°12.904 2°51.049 20.2339 4.252601 31.395132 -1.000568
2010-06-11 07:41:47 51°12.901 2°51.044 20.2433 4.251863 31.390671 -1.000568
2010-06-11 07:41:52 51°12.898 2°51.038 20.242 4.252496 31.395347 -0.965744
2010-06-11 07:41:57 51°12.894 2°51.031 20.2459 4.251757 31.38926 -0.965744
2010-06-11 07:42:03 51°12.89 2°51.023 20.2447 4.251757 31.38926 -0.965744
2010-06-11 07:42:08 51°12.886 2°51.016 20.2458 4.252179 31.39328 -0.965744
2010-06-11 07:42:12 51°12.884 2°51.011 20.2503 4.252707 31.397086 -1.000568
2010-06-11 07:42:17 51°12.88 2°51.004 20.2537 4.251863 31.390671 -0.965744
2010-06-11 07:42:22 51°12.877 2°50.997 20.253 4.251863 31.391213 -0.965744
2010-06-11 07:42:28 51°12.873 2°50.988 20.2502 4.25239 31.394477 -0.965744
2010-06-11 07:42:32 51°12.87 2°50.983 20.2572 4.25239 31.394477 -0.965744
2010-06-11 07:42:37 51°12.868 2°50.975 20.257 4.252496 31.396972 -1.000568
2010-06-11 07:42:42 51°12.864 2°50.968 20.2541 4.251652 31.390558 -1.000568
2010-06-11 07:42:47 51°12.861 2°50.961 20.2614 4.252074 31.394036 -0.965744
2010-06-11 07:42:52 51°12.859 2°50.954 20.2545 4.252496 31.39643 -1.000568
2010-06-11 07:42:58 51°12.855 2°50.945 20.2612 4.251863 31.391755 -0.965744
2010-06-11 07:43:03 51°12.852 2°50.938 20.2674 4.251863 31.391755 -0.965744
2010-06-11 07:43:07 51°12.849 2°50.933 20.2634 4.252179 31.394906 -0.965744
2010-06-11 07:43:12 51°12.846 2°50.925 20.2703 4.25239 31.395019 -0.965744
2010-06-11 07:43:18 51°12.843 2°50.916 20.2652 4.252285 31.395233 -0.965744
2010-06-11 07:43:23 51°12.84 2°50.91 20.2672 4.251863 31.391755 -1.000568
2010-06-11 07:43:27 51°12.837 2°50.904 20.2675 4.252285 31.395775 -1.000568
2010-06-11 07:43:32 51°12.834 2°50.897 20.2759 4.252285 31.395775 -1.000568
2010-06-11 07:43:37 51°12.831 2°50.89 20.2771 4.251335 31.388491 -1.000568
2010-06-11 07:43:43 51°12.827 2°50.881 20.2784 4.251863 31.392297 -0.965744
2010-06-11 07:43:47 51°12.825 2°50.876 20.2788 4.252074 31.394036 -0.965744
2010-06-11 07:43:52 51°12.822 2°50.868 20.2835 4.251441 31.389902 -0.93092
2010-06-11 07:43:57 51°12.819 2°50.861 20.2834 4.251863 31.392297 -1.000568
2010-06-11 07:44:03 51°12.815 2°50.853 20.2819 4.251863 31.392297 -1.000568
2010-06-11 07:44:07 51°12.812 2°50.847 20.2828 4.252179 31.394364 -1.000568
2010-06-11 07:44:12 51°12.809 2°50.84 20.2823 4.252179 31.394906 -1.000568
2010-06-11 07:44:17 51°12.806 2°50.833 20.2892 4.251757 31.391427 -0.965744
2010-06-11 07:44:22 51°12.803 2°50.826 20.2929 4.25239 31.397187 -1.000568
2010-06-11 07:44:27 51°12.8 2°50.819 20.2954 4.251968 31.393708 -0.93092
2010-06-11 07:44:32 51°12.797 2°50.812 20.2937 4.251968 31.393708 -0.93092
2010-06-11 07:44:37 51°12.794 2°50.806 20.2964 4.252285 31.396317 -0.965744
2010-06-11 07:44:42 51°12.792 2°50.799 20.29 4.25123 31.387621 -1.000568
2010-06-11 07:44:48 51°12.788 2°50.791 20.301 4.252074 31.39512 -0.965744
2010-06-11 07:44:52 51°12.786 2°50.786 20.289 4.251652 31.391641 -0.965744
2010-06-11 07:44:58 51°12.782 2°50.778 20.3015 4.251968 31.39425 -0.965744
2010-06-11 07:45:02 51°12.78 2°50.773 20.2977 4.251968 31.39425 -0.965744
2010-06-11 07:45:07 51°12.777 2°50.766 20.3068 4.251441 31.390986 -0.965744
2010-06-11 07:45:12 51°12.774 2°50.76 20.3095 4.251863 31.393381 -1.000568
2010-06-11 07:45:18 51°12.771 2°50.752 20.3058 4.251124 31.388377 -1.000568
2010-06-11 07:45:22 51°12.768 2°50.748 20.3151 4.251441 31.390986 -0.965744
2010-06-11 07:45:27 51°12.766 2°50.741 20.3124 4.252179 31.395989 -1.000568
2010-06-11 07:45:32 51°12.763 2°50.735 20.316 4.252179 31.395989 -1.000568
2010-06-11 07:45:38 51°12.76 2°50.727 20.3112 4.251546 31.391856 -1.000568
2010-06-11 07:45:43 51°12.757 2°50.722 20.3188 4.252496 31.399682 -0.965744
2010-06-11 07:45:47 51°12.755 2°50.717 20.314 4.251124 31.387835 -0.965744
2010-06-11 07:45:52 51°12.752 2°50.711 20.3215 4.251863 31.394465 -1.000568
2010-06-11 07:45:58 51°12.749 2°50.704 20.32 4.250808 31.38631 -1.000568
2010-06-11 07:46:03 51°12.746 2°50.698 20.3252 4.250808 31.38631 -1.000568
2010-06-11 07:46:07 51°12.744 2°50.693 20.3279 4.251124 31.388919 -1.000568
2010-06-11 07:46:12 51°12.741 2°50.687 20.3301 4.251124 31.388377 -0.965744
2010-06-11 07:46:18 51°12.738 2°50.679 20.3239 4.251124 31.388919 -0.965744
2010-06-11 07:46:23 51°12.735 2°50.674 20.3263 4.250808 31.38631 -1.000568
2010-06-11 07:46:27 51°12.733 2°50.669 20.3259 4.252179 31.398157 -1.000568
2010-06-11 07:46:32 51°12.731 2°50.663 20.3372 4.252179 31.398157 -1.000568
2010-06-11 07:46:38 51°12.727 2°50.656 20.3325 4.250913 31.387722 -0.965744
2010-06-11 07:46:42 51°12.725 2°50.651 20.3358 4.251441 31.39207 -0.965744
2010-06-11 07:46:47 51°12.723 2°50.645 20.3314 4.25123 31.390331 -1.035392
2010-06-11 07:46:53 51°12.719 2°50.637 20.3381 4.251652 31.393809 -0.965744
2010-06-11 07:46:58 51°12.717 2°50.631 20.342 4.250385 31.383916 -0.965744
2010-06-11 07:47:02 51°12.714 2°50.626 20.3469 4.250385 31.383916 -0.965744
2010-06-11 07:47:08 51°12.711 2°50.618 20.3408 4.250808 31.387394 -0.965744
2010-06-11 07:47:13 51°12.708 2°50.612 20.3463 4.251335 31.3912 -0.965744
2010-06-11 07:47:18 51°12.706 2°50.605 20.3508 4.251652 31.393267 -0.965744
2010-06-11 07:47:22 51°12.704 2°50.6 20.3456 4.251019 31.389133 -0.965744
2010-06-11 07:47:27 51°12.701 2°50.593 20.3555 4.251019 31.389133 -0.93092
2010-06-11 07:47:32 51°12.699 2°50.586 20.3554 4.251019 31.389133 -0.93092
2010-06-11 07:47:38 51°12.696 2°50.578 20.36 4.251335 31.3912 -1.000568
2010-06-11 07:47:42 51°12.694 2°50.572 20.3575 4.25123 31.390331 -0.965744
2010-06-11 07:47:47 51°12.692 2°50.565 20.3598 4.25028 31.382504 -1.000568
2010-06-11 07:47:51 51°12.69 2°50.559 20.3637 4.251124 31.390003 -0.965744
2010-06-11 07:47:58 51°12.687 2°50.55 20.3667 4.251335 31.3912 -0.965744
2010-06-11 07:48:03 51°12.684 2°50.543 20.3633 4.251335 31.3912 -0.965744
2010-06-11 07:48:07 51°12.682 2°50.537 20.3681 4.251335 31.392284 -1.000568
2010-06-11 07:48:12 51°12.68 2°50.53 20.365 4.250597 31.385655 -0.965744
2010-06-11 07:48:17 51°12.678 2°50.523 20.3624 4.250597 31.386739 -1.000568
2010-06-11 07:48:23 51°12.675 2°50.515 20.3732 4.25123 31.391415 -1.000568
2010-06-11 07:48:27 51°12.673 2°50.509 20.3654 4.251019 31.389133 -0.93092
2010-06-11 07:48:32 51°12.67 2°50.502 20.373 4.251019 31.389133 -0.93092
2010-06-11 07:48:37 51°12.668 2°50.495 20.3759 4.250174 31.382718 -0.965744
2010-06-11 07:48:42 51°12.666 2°50.488 20.3668 4.251441 31.392612 -0.965744
2010-06-11 07:48:47 51°12.663 2°50.482 20.3724 4.25123 31.391415 -1.000568
2010-06-11 07:48:52 51°12.661 2°50.475 20.3813 4.252074 31.39783 -1.000568
2010-06-11 07:48:57 51°12.659 2°50.468 20.3758 4.249541 31.378042 -1.000568
2010-06-11 07:49:02 51°12.656 2°50.461 20.3917 4.249541 31.378042 -1.000568
2010-06-11 07:49:07 51°12.654 2°50.454 20.3897 4.250808 31.387394 -0.965744
2010-06-11 07:49:12 51°12.651 2°50.447 20.3944 4.25123 31.391956 -0.965744
2010-06-11 07:49:17 51°12.649 2°50.44 20.3926 4.25028 31.38413 -0.965744
2010-06-11 07:49:22 51°12.646 2°50.434 20.3908 4.250808 31.38902 -0.965744
2010-06-11 07:49:27 51°12.643 2°50.427 20.3922 4.250597 31.386739 -1.000568
2010-06-11 07:49:32 51°12.641 2°50.42 20.3976 4.250597 31.386739 -1.000568
2010-06-11 07:49:38 51°12.638 2°50.411 20.3953 4.250174 31.382718 -0.965744
2010-06-11 07:49:42 51°12.636 2°50.406 20.4013 4.251019 31.389675 -1.000568
2010-06-11 07:49:47 51°12.633 2°50.4 20.3972 4.250385 31.383916 -0.965744
2010-06-11 07:49:52 51°12.631 2°50.393 20.4033 4.250385 31.384457 -0.965744
2010-06-11 07:49:58 51°12.628 2°50.385 20.4066 4.251652 31.394351 -0.965744
2010-06-11 07:50:03 51°12.626 2°50.379 20.4022 4.251652 31.394351 -0.965744
2010-06-11 07:50:07 51°12.624 2°50.373 20.4062 4.250808 31.387394 -0.965744
2010-06-11 07:50:12 51°12.621 2°50.367 20.4088 4.250913 31.388806 -0.965744
2010-06-11 07:50:18 51°12.618 2°50.359 20.4067 4.249541 31.378042 -1.000568
2010-06-11 07:50:23 51°12.616 2°50.353 20.4016 4.251335 31.392284 -0.965744
2010-06-11 07:50:27 51°12.614 2°50.348 20.4152 4.250913 31.389889 -0.965744
2010-06-11 07:50:32 51°12.612 2°50.341 20.4167 4.250913 31.389889 -0.965744
2010-06-11 07:50:37 51°12.609 2°50.335 20.4139 4.249752 31.380323 -0.965744
2010-06-11 07:50:43 51°12.607 2°50.327 20.4183 4.250702 31.387608 -0.965744
2010-06-11 07:50:47 51°12.605 2°50.322 20.425 4.251335 31.392826 -0.965744
2010-06-11 07:50:52 51°12.603 2°50.315 20.4175 4.250597 31.38728 -0.965744
2010-06-11 07:50:58 51°12.6 2°50.307 20.4189 4.248592 31.370216 -0.965744
2010-06-11 07:51:03 51°12.597 2°50.301 20.4273 4.248592 31.370216 -0.965744
2010-06-11 07:51:07 51°12.595 2°50.296 20.4291 4.250174 31.383802 -1.000568
2010-06-11 07:51:13 51°12.593 2°50.288 20.4258 4.250597 31.38728 -0.965744
2010-06-11 07:51:18 51°12.59 2°50.281 20.4305 4.250385 31.385541 -0.965744
2010-06-11 07:51:22 51°12.588 2°50.276 20.4336 4.25028 31.384671 -0.965744
2010-06-11 07:51:27 51°12.586 2°50.27 20.4261 4.250174 31.38326 -0.93092
2010-06-11 07:51:33 51°12.583 2°50.262 20.4372 4.250174 31.38326 -0.93092
2010-06-11 07:51:38 51°12.581 2°50.255 20.4339 4.249963 31.381521 -0.965744
2010-06-11 07:51:42 51°12.579 2°50.25 20.4316 4.250385 31.384999 -0.965744
2010-06-11 07:51:47 51°12.576 2°50.244 20.4341 4.250808 31.388478 -0.965744
2010-06-11 07:51:52 51°12.574 2°50.237 20.4449 4.250385 31.385541 -1.000568
2010-06-11 07:51:58 51°12.571 2°50.229 20.438 4.250174 31.383802 -1.000568
2010-06-11 07:52:02 51°12.569 2°50.224 20.4441 4.250174 31.383802 -1.000568
2010-06-11 07:52:07 51°12.567 2°50.218 20.4465 4.249858 31.381193 -0.965744
2010-06-11 07:52:12 51°12.564 2°50.211 20.4535 4.250597 31.386739 -0.965744
2010-06-11 07:52:18 51°12.561 2°50.203 20.4523 4.249436 31.377173 -1.000568
2010-06-11 07:52:22 51°12.56 2°50.198 20.4502 4.249647 31.379454 -0.965744
2010-06-11 07:52:27 51°12.557 2°50.192 20.4519 4.250702 31.38815 -1.000568
2010-06-11 07:52:32 51°12.554 2°50.185 20.459 4.250702 31.38815 -1.000568
2010-06-11 07:52:38 51°12.552 2°50.177 20.4504 4.250491 31.386953 -0.965744
2010-06-11 07:52:43 51°12.549 2°50.171 20.4554 4.250174 31.384344 -1.000568
2010-06-11 07:52:47 51°12.547 2°50.166 20.4608 4.250913 31.389347 -1.000568
2010-06-11 07:52:52 51°12.545 2°50.159 20.4532 4.249752 31.380323 -1.000568
2010-06-11 07:52:58 51°12.542 2°50.152 20.4572 4.250069 31.383474 -1.000568
2010-06-11 07:53:03 51°12.539 2°50.145 20.4615 4.250069 31.383474 -1.000568
2010-06-11 07:53:07 51°12.537 2°50.14 20.4582 4.249225 31.376517 -0.965744
2010-06-11 07:53:13 51°12.534 2°50.132 20.4699 4.249858 31.380651 -0.965744
2010-06-11 07:53:18 51°12.532 2°50.126 20.4628 4.250597 31.386739 -0.965744
2010-06-11 07:53:22 51°12.53 2°50.12 20.4752 4.249963 31.382063 -0.965744
2010-06-11 07:53:27 51°12.527 2°50.114 20.4697 4.250174 31.383802 -1.000568
2010-06-11 07:53:33 51°12.524 2°50.106 20.4794 4.250174 31.383802 -1.000568
2010-06-11 07:53:38 51°12.522 2°50.099 20.4781 4.25028 31.384671 -0.965744
2010-06-11 07:53:42 51°12.52 2°50.094 20.4821 4.250491 31.386953 -0.965744
2010-06-11 07:53:47 51°12.517 2°50.087 20.4842 4.249963 31.382604 -1.000568
2010-06-11 07:53:53 51°12.514 2°50.079 20.4764 4.249752 31.380323 -1.000568
2010-06-11 07:53:58 51°12.512 2°50.073 20.4829 4.25028 31.385213 -0.965744
2010-06-11 07:54:02 51°12.51 2°50.067 20.4891 4.25028 31.385213 -0.965744
2010-06-11 07:54:07 51°12.507 2°50.061 20.4848 4.249752 31.380865 -0.965744
2010-06-11 07:54:12 51°12.505 2°50.054 20.4839 4.24933 31.377386 -0.965744
2010-06-11 07:54:18 51°12.502 2°50.046 20.4821 4.249752 31.381407 -0.965744
2010-06-11 07:54:22 51°12.5 2°50.041 20.4911 4.250913 31.390431 -0.965744
2010-06-11 07:54:27 51°12.497 2°50.034 20.4937 4.249225 31.377059 -0.965744
2010-06-11 07:54:32 51°12.494 2°50.027 20.4988 4.249225 31.377059 -0.965744
2010-06-11 07:54:38 51°12.491 2°50.019 20.4973 4.249225 31.376517 -1.000568
2010-06-11 07:54:42 51°12.489 2°50.014 20.4966 4.249541 31.379668 -0.965744
2010-06-11 07:54:47 51°12.487 2°50.007 20.5069 4.249858 31.381735 -0.965744
2010-06-11 07:54:52 51°12.485 2°50 20.5039 4.249647 31.379454 -0.965744
2010-06-11 07:54:58 51°12.481 2°49.992 20.5075 4.249436 31.378256 -0.965744
2010-06-11 07:55:03 51°12.479 2°49.985 20.5082 4.249436 31.378256 -0.965744
2010-06-11 07:55:07 51°12.477 2°49.979 20.5108 4.250385 31.384999 -0.965744
2010-06-11 07:55:12 51°12.474 2°49.972 20.5101 4.249752 31.381407 -0.965744
2010-06-11 07:55:18 51°12.471 2°49.964 20.5142 4.249647 31.381621 -1.000568
2010-06-11 07:55:22 51°12.469 2°49.959 20.5151 4.248697 31.37271 -0.93092
2010-06-11 07:55:27 51°12.467 2°49.952 20.5179 4.249647 31.381079 -0.965744
2010-06-11 07:55:33 51°12.464 2°49.943 20.506 4.249647 31.381079 -0.965744
2010-06-11 07:55:38 51°12.461 2°49.937 20.5251 4.249647 31.379995 -0.965744
2010-06-11 07:55:42 51°12.46 2°49.931 20.5204 4.248908 31.373908 -0.965744
2010-06-11 07:55:47 51°12.457 2°49.924 20.5143 4.249647 31.380537 -0.965744
2010-06-11 07:55:53 51°12.454 2°49.916 20.5177 4.24933 31.379012 -0.965744
2010-06-11 07:55:58 51°12.451 2°49.91 20.5265 4.249541 31.380751 -1.000568
2010-06-11 07:56:03 51°12.449 2°49.903 20.5204 4.249541 31.380751 -1.000568
2010-06-11 07:56:07 51°12.447 2°49.898 20.5284 4.249541 31.380209 -1.000568
2010-06-11 07:56:12 51°12.445 2°49.89 20.5217 4.249119 31.376731 -0.965744
2010-06-11 07:56:18 51°12.442 2°49.883 20.5339 4.250491 31.387495 -0.965744
2010-06-11 07:56:23 51°12.44 2°49.876 20.5272 4.249752 31.380865 -1.000568
2010-06-11 07:56:27 51°12.437 2°49.87 20.5401 4.24933 31.37847 -1.000568
2010-06-11 07:56:32 51°12.435 2°49.863 20.5286 4.24933 31.37847 -1.000568
2010-06-11 07:56:38 51°12.432 2°49.855 20.5395 4.249541 31.380751 -0.965744
2010-06-11 07:56:43 51°12.43 2°49.848 20.5338 4.249225 31.377059 -0.965744
2010-06-11 07:56:47 51°12.428 2°49.843 20.5406 4.249858 31.382818 -1.000568
2010-06-11 07:56:53 51°12.425 2°49.835 20.5353 4.249963 31.383146 -0.965744
2010-06-11 07:56:58 51°12.422 2°49.827 20.5477 4.24933 31.379012 -1.000568
2010-06-11 07:57:03 51°12.42 2°49.82 20.549 4.24933 31.379012 -1.000568
2010-06-11 07:57:07 51°12.418 2°49.815 20.5461 4.249647 31.381079 -1.000568
2010-06-11 07:57:13 51°12.415 2°49.806 20.544 4.249647 31.380537 -0.965744
2010-06-11 07:57:17 51°12.413 2°49.801 20.554 4.249963 31.383146 -0.965744
2010-06-11 07:57:23 51°12.41 2°49.792 20.5529 4.249119 31.376189 -1.000568
2010-06-11 07:57:27 51°12.408 2°49.786 20.556 4.249647 31.380537 -1.000568
2010-06-11 07:57:33 51°12.405 2°49.778 20.5539 4.249647 31.380537 -1.000568
2010-06-11 07:57:37 51°12.403 2°49.772 20.5571 4.249014 31.375861 -0.965744
2010-06-11 07:57:43 51°12.4 2°49.764 20.5594 4.249752 31.381949 -0.965744
2010-06-11 07:57:47 51°12.398 2°49.758 20.5664 4.250174 31.385427 -0.93092
2010-06-11 07:57:53 51°12.395 2°49.749 20.5591 4.248592 31.373466 -1.000568
2010-06-11 07:57:57 51°12.393 2°49.744 20.5689 4.249541 31.380751 -0.965744
2010-06-11 07:58:02 51°12.391 2°49.737 20.5674 4.249541 31.380751 -0.965744
2010-06-11 07:58:07 51°12.388 2°49.73 20.5715 4.250597 31.388364 -1.000568
2010-06-11 07:58:13 51°12.385 2°49.721 20.5677 4.249119 31.376731 -1.000568
2010-06-11 07:58:17 51°12.383 2°49.715 20.5686 4.249119 31.376731 -1.000568
2010-06-11 07:58:22 51°12.38 2°49.708 20.5767 4.24933 31.37847 -0.965744
2010-06-11 07:58:27 51°12.378 2°49.701 20.5756 4.248803 31.374663 -0.965744
2010-06-11 07:58:32 51°12.375 2°49.694 20.5826 4.248803 31.374663 -0.965744
2010-06-11 07:58:38 51°12.372 2°49.685 20.5695 4.250174 31.384886 -0.965744
2010-06-11 07:58:42 51°12.369 2°49.68 20.5831 4.249541 31.380751 -0.965744
2010-06-11 07:58:47 51°12.367 2°49.673 20.5802 4.249541 31.380209 -0.965744
2010-06-11 07:58:52 51°12.364 2°49.666 20.5814 4.248697 31.374335 -0.965744
2010-06-11 07:58:58 51°12.361 2°49.657 20.5789 4.248381 31.371185 -1.000568
2010-06-11 07:59:03 51°12.358 2°49.65 20.5923 4.248381 31.371185 -1.000568
2010-06-11 07:59:07 51°12.356 2°49.644 20.5903 4.248381 31.371185 -1.000568
2010-06-11 07:59:12 51°12.353 2°49.638 20.5862 4.250808 31.390646 -0.965744
2010-06-11 07:59:18 51°12.349 2°49.63 20.5953 4.249963 31.384772 -1.000568
2010-06-11 07:59:23 51°12.347 2°49.623 20.5989 4.249647 31.381621 -1.000568
2010-06-11 07:59:27 51°12.345 2°49.617 20.5935 4.248592 31.372924 -0.965744
2010-06-11 07:59:32 51°12.342 2°49.611 20.6009 4.248592 31.372924 -0.965744
2010-06-11 07:59:37 51°12.339 2°49.604 20.5963 4.248803 31.374663 -0.965744
2010-06-11 07:59:43 51°12.336 2°49.596 20.5974 4.249014 31.376403 -1.000568
2010-06-11 07:59:47 51°12.334 2°49.59 20.603 4.24933 31.379554 -0.93092
2010-06-11 07:59:52 51°12.331 2°49.584 20.6019 4.249858 31.38336 -0.965744
2010-06-11 07:59:58 51°12.328 2°49.575 20.6057 4.24933 31.379554 -1.000568
2010-06-11 08:00:03 51°12.326 2°49.569 20.6065 4.24933 31.379554 -1.000568
2010-06-11 08:00:07 51°12.324 2°49.563 20.6064 4.249014 31.376944 -1.000568
2010-06-11 08:00:13 51°12.321 2°49.555 20.6184 4.249119 31.377272 -1.000568
2010-06-11 08:00:18 51°12.318 2°49.548 20.6132 4.248908 31.375533 -0.965744
2010-06-11 08:00:22 51°12.316 2°49.542 20.6194 4.248803 31.375747 -0.965744
2010-06-11 08:00:27 51°12.314 2°49.535 20.6216 4.249541 31.381293 -0.965744
2010-06-11 08:00:33 51°12.311 2°49.527 20.6192 4.249541 31.381293 -0.965744
2010-06-11 08:00:38 51°12.308 2°49.521 20.6207 4.249541 31.381293 -0.965744
2010-06-11 08:00:42 51°12.306 2°49.515 20.6283 4.248592 31.374007 -0.965744
2010-06-11 08:00:47 51°12.304 2°49.508 20.6269 4.249647 31.382163 -0.965744
2010-06-11 08:00:52 51°12.301 2°49.502 20.6296 4.248275 31.370857 -0.965744
2010-06-11 08:00:58 51°12.298 2°49.493 20.6255 4.249541 31.380751 -0.965744
2010-06-11 08:01:02 51°12.296 2°49.488 20.6268 4.249541 31.380751 -0.965744
2010-06-11 08:01:07 51°12.293 2°49.481 20.6334 4.249119 31.377814 -0.965744
2010-06-11 08:01:12 51°12.291 2°49.475 20.6355 4.247853 31.36792 -1.000568
2010-06-11 08:01:18 51°12.288 2°49.467 20.636 4.248486 31.372596 -0.965744
2010-06-11 08:01:23 51°12.285 2°49.46 20.6404 4.249541 31.380751 -1.000568
2010-06-11 08:01:27 51°12.283 2°49.455 20.6339 4.249119 31.377814 -0.965744
2010-06-11 08:01:32 51°12.28 2°49.448 20.6414 4.249119 31.377814 -0.965744
2010-06-11 08:01:38 51°12.277 2°49.44 20.6443 4.248381 31.371185 -0.965744
2010-06-11 08:01:43 51°12.275 2°49.433 20.6471 4.248803 31.375747 -0.965744
2010-06-11 08:01:47 51°12.272 2°49.428 20.649 4.248803 31.375747 -1.000568
2010-06-11 08:01:52 51°12.27 2°49.421 20.65 4.248275 31.370857 -0.965744
2010-06-11 08:01:58 51°12.267 2°49.413 20.651 4.249119 31.377814 -0.965744
2010-06-11 08:02:02 51°12.265 2°49.407 20.6436 4.249119 31.377814 -0.965744
2010-06-11 08:02:07 51°12.262 2°49.401 20.6508 4.248697 31.374877 -1.000568
2010-06-11 08:02:13 51°12.26 2°49.392 20.6574 4.249014 31.376403 -0.965744
2010-06-11 08:02:18 51°12.258 2°49.385 20.6598 4.24933 31.379554 -0.965744
2010-06-11 08:02:22 51°12.256 2°49.38 20.6546 4.248486 31.373138 -0.965744
2010-06-11 08:02:27 51°12.254 2°49.373 20.6599 4.249225 31.378684 -1.000568
2010-06-11 08:02:33 51°12.251 2°49.365 20.6626 4.249225 31.378684 -1.000568
2010-06-11 08:02:38 51°12.25 2°49.358 20.6573 4.248908 31.376617 -0.965744
2010-06-11 08:02:42 51°12.248 2°49.352 20.6697 4.249119 31.378356 -0.965744
2010-06-11 08:02:47 51°12.246 2°49.345 20.6729 4.25028 31.387381 -0.965744
2010-06-11 08:02:53 51°12.244 2°49.336 20.6773 4.247747 31.367592 -0.965744
2010-06-11 08:02:58 51°12.243 2°49.329 20.6729 4.248697 31.374877 -0.965744
2010-06-11 08:03:02 51°12.242 2°49.323 20.6774 4.248697 31.374877 -0.965744
2010-06-11 08:03:07 51°12.24 2°49.316 20.6794 4.249119 31.378356 -0.965744
2010-06-11 08:03:12 51°12.239 2°49.308 20.6806 4.248381 31.373352 -0.965744
2010-06-11 08:03:18 51°12.238 2°49.3 20.6854 4.247853 31.368461 -1.000568
2010-06-11 08:03:22 51°12.237 2°49.294 20.6868 4.248064 31.369659 -0.965744
2010-06-11 08:03:27 51°12.236 2°49.286 20.6881 4.249436 31.380423 -1.000568
2010-06-11 08:03:32 51°12.236 2°49.279 20.6864 4.249436 31.380423 -1.000568
2010-06-11 08:03:38 51°12.235 2°49.271 20.69 4.248908 31.3777 -0.965744
2010-06-11 08:03:43 51°12.235 2°49.264 20.6831 4.248908 31.377158 -0.965744
2010-06-11 08:03:47 51°12.234 2°49.259 20.6871 4.248486 31.374221 -0.965744
2010-06-11 08:03:52 51°12.234 2°49.251 20.6913 4.248697 31.375961 -1.000568
2010-06-11 08:03:58 51°12.234 2°49.243 20.6943 4.249014 31.378028 -0.965744
2010-06-11 08:04:03 51°12.234 2°49.236 20.691 4.249014 31.378028 -0.965744
2010-06-11 08:04:07 51°12.234 2°49.23 20.6917 4.249119 31.378898 -1.000568
2010-06-11 08:04:12 51°12.235 2°49.223 20.7019 4.247747 31.368133 -0.965744
2010-06-11 08:04:18 51°12.235 2°49.215 20.7088 4.250069 31.387809 -0.965744
2010-06-11 08:04:22 51°12.235 2°49.209 20.7108 4.247853 31.369545 -0.965744
2010-06-11 08:04:27 51°12.236 2°49.202 20.7115 4.248275 31.372482 -1.000568
2010-06-11 08:04:33 51°12.237 2°49.194 20.7122 4.248275 31.372482 -1.000568
2010-06-11 08:04:38 51°12.237 2°49.187 20.7105 4.25028 31.389007 -1.000568
2010-06-11 08:04:42 51°12.238 2°49.181 20.7069 4.248592 31.375633 -0.965744
2010-06-11 08:04:47 51°12.239 2°49.174 20.7073 4.248064 31.371284 -0.965744
2010-06-11 08:04:53 51°12.239 2°49.166 20.7095 4.250069 31.386725 -1.000568
2010-06-11 08:04:58 51°12.24 2°49.159 20.7146 4.248908 31.377158 -1.000568
2010-06-11 08:05:03 51°12.241 2°49.152 20.7188 4.248908 31.377158 -1.000568
2010-06-11 08:05:07 51°12.241 2°49.147 20.7187 4.248064 31.371284 -1.000568
2010-06-11 08:05:13 51°12.242 2°49.139 20.7166 4.249963 31.385856 -0.965744
2010-06-11 08:05:18 51°12.243 2°49.131 20.7257 4.248064 31.371284 -1.000568
2010-06-11 08:05:23 51°12.243 2°49.125 20.7266 4.248275 31.373024 -1.000568
2010-06-11 08:05:27 51°12.244 2°49.119 20.7278 4.248275 31.373565 -0.965744
2010-06-11 08:05:32 51°12.245 2°49.112 20.7275 4.248275 31.373565 -0.965744
2010-06-11 08:05:38 51°12.246 2°49.104 20.73 4.249225 31.380309 -1.000568
2010-06-11 08:05:43 51°12.246 2°49.098 20.7332 4.247853 31.369545 -1.000568
2010-06-11 08:05:47 51°12.247 2°49.092 20.7307 4.248803 31.37683 -1.000568
2010-06-11 08:05:52 51°12.247 2°49.085 20.7362 4.247747 31.368675 -0.965744
2010-06-11 08:05:57 51°12.248 2°49.079 20.7314 4.249541 31.383461 -1.000568
2010-06-11 08:06:03 51°12.249 2°49.071 20.7345 4.249541 31.383461 -1.000568
2010-06-11 08:06:07 51°12.249 2°49.065 20.7402 4.248275 31.372482 -0.965744
2010-06-11 08:06:12 51°12.249 2°49.059 20.7386 4.247747 31.368675 -1.000568
2010-06-11 08:06:17 51°12.25 2°49.052 20.7461 4.248697 31.376503 -1.000568
2010-06-11 08:06:23 51°12.251 2°49.044 20.7424 4.248486 31.375305 -0.965744
2010-06-11 08:06:28 51°12.252 2°49.038 20.7386 4.248697 31.376503 -0.965744
2010-06-11 08:06:32 51°12.252 2°49.032 20.7513 4.248697 31.376503 -0.965744
2010-06-11 08:06:37 51°12.252 2°49.026 20.7484 4.248064 31.371284 -1.035392
2010-06-11 08:06:42 51°12.252 2°49.019 20.7552 4.249436 31.383133 -0.965744
2010-06-11 08:06:48 51°12.253 2°49.011 20.7579 4.249014 31.379654 -0.965744
2010-06-11 08:06:52 51°12.254 2°49.005 20.7527 4.24627 31.357583 -1.000568
2010-06-11 08:06:58 51°12.254 2°48.998 20.7518 4.249119 31.380523 -1.000568
2010-06-11 08:07:03 51°12.254 2°48.991 20.755 4.249119 31.380523 -1.000568
2010-06-11 08:07:08 51°12.254 2°48.984 20.7608 4.248064 31.372368 -0.965744
2010-06-11 08:07:12 51°12.255 2°48.979 20.7603 4.248803 31.377914 -0.965744
2010-06-11 08:07:18 51°12.255 2°48.971 20.7646 4.24817 31.372696 -1.000568
2010-06-11 08:07:23 51°12.256 2°48.964 20.7679 4.247325 31.36628 -0.965744
2010-06-11 08:07:27 51°12.256 2°48.959 20.7615 4.249014 31.379654 -0.965744
2010-06-11 08:07:32 51°12.256 2°48.952 20.7647 4.249014 31.379654 -0.965744
2010-06-11 08:07:38 51°12.257 2°48.944 20.7672 4.248486 31.375305 -1.000568
2010-06-11 08:07:43 51°12.257 2°48.937 20.7737 4.248486 31.375847 -0.965744
2010-06-11 08:07:47 51°12.257 2°48.932 20.7723 4.249225 31.381935 -0.965744
2010-06-11 08:07:52 51°12.257 2°48.925 20.7758 4.248592 31.376716 -0.965744
2010-06-11 08:07:58 51°12.258 2°48.917 20.7751 4.248592 31.377258 -1.000568
2010-06-11 08:08:03 51°12.258 2°48.91 20.7729 4.248592 31.377258 -1.000568
2010-06-11 08:08:07 51°12.258 2°48.905 20.7755 4.248486 31.375847 -0.965744
2010-06-11 08:08:12 51°12.258 2°48.898 20.7821 4.24817 31.373237 -0.965744
2010-06-11 08:08:17 51°12.258 2°48.891 20.7785 4.248275 31.374107 -0.965744
2010-06-11 08:08:23 51°12.258 2°48.882 20.7873 4.249119 31.380523 -1.000568
2010-06-11 08:08:27 51°12.259 2°48.877 20.7907 4.247536 31.368561 -0.965744
2010-06-11 08:08:32 51°12.259 2°48.87 20.7895 4.247536 31.368561 -0.965744
2010-06-11 08:08:37 51°12.259 2°48.863 20.7806 4.24933 31.382805 -1.000568
2010-06-11 08:08:43 51°12.26 2°48.854 20.7923 4.249119 31.381607 -1.000568
2010-06-11 08:08:48 51°12.259 2°48.847 20.7938 4.248803 31.37954 -1.000568
2010-06-11 08:08:52 51°12.26 2°48.842 20.7943 4.248592 31.377258 -0.965744
2010-06-11 08:08:57 51°12.26 2°48.834 20.7938 4.24817 31.374321 -1.000568
2010-06-11 08:09:02 51°12.26 2°48.827 20.7965 4.24817 31.374321 -1.000568
2010-06-11 08:09:08 51°12.261 2°48.818 20.8011 4.248275 31.375191 -0.965744
2010-06-11 08:09:12 51°12.261 2°48.813 20.798 4.248381 31.375519 -0.965744
2010-06-11 08:09:18 51°12.261 2°48.804 20.8056 4.248697 31.378128 -1.000568
2010-06-11 08:09:23 51°12.261 2°48.797 20.8059 4.247748 31.3703 -1.000568
2010-06-11 08:09:27 51°12.261 2°48.791 20.8022 4.248697 31.37867 -0.965744
2010-06-11 08:09:32 51°12.262 2°48.784 20.8066 4.248697 31.37867 -0.965744
2010-06-11 08:09:38 51°12.262 2°48.775 20.8067 4.248908 31.38041 -0.965744
2010-06-11 08:09:43 51°12.262 2°48.768 20.8069 4.247748 31.371384 -1.000568
2010-06-11 08:09:47 51°12.263 2°48.762 20.8131 4.248381 31.376061 -1.000568
2010-06-11 08:09:52 51°12.263 2°48.755 20.8161 4.247853 31.372253 -1.000568
2010-06-11 08:09:58 51°12.263 2°48.747 20.8146 4.24817 31.374863 -0.965744
2010-06-11 08:10:03 51°12.264 2°48.74 20.8126 4.24817 31.374863 -0.965744
2010-06-11 08:10:07 51°12.264 2°48.734 20.8213 4.248275 31.375191 -0.965744
2010-06-11 08:10:12 51°12.265 2°48.727 20.8161 4.247959 31.373123 -0.965744
2010-06-11 08:10:18 51°12.265 2°48.719 20.8203 4.247537 31.370186 -0.965744
2010-06-11 08:10:23 51°12.266 2°48.712 20.8215 4.251019 31.397806 -0.965744
2010-06-11 08:10:27 51°12.266 2°48.706 20.8272 4.247853 31.372795 -0.965744
2010-06-11 08:10:32 51°12.266 2°48.7 20.8282 4.247853 31.372795 -0.965744
2010-06-11 08:10:38 51°12.267 2°48.692 20.8292 4.247748 31.373009 -1.000568
2010-06-11 08:10:43 51°12.267 2°48.685 20.8335 4.248381 31.377686 -1.000568
2010-06-11 08:10:48 51°12.268 2°48.679 20.8353 4.249964 31.390192 -0.965744
2010-06-11 08:10:52 51°12.269 2°48.673 20.8298 4.248064 31.374535 -0.965744
2010-06-11 08:10:57 51°12.269 2°48.667 20.8401 4.247853 31.373337 -1.000568
2010-06-11 08:11:03 51°12.27 2°48.659 20.8411 4.247853 31.373337 -1.000568
2010-06-11 08:11:08 51°12.27 2°48.653 20.8419 4.250069 31.391062 -0.965744
2010-06-11 08:11:12 51°12.271 2°48.648 20.8431 4.247431 31.369858 -0.965744
2010-06-11 08:11:17 51°12.271 2°48.641 20.8466 4.248592 31.379426 -0.965744
2010-06-11 08:11:22 51°12.271 2°48.635 20.8451 4.24817 31.376488 -0.965744
2010-06-11 08:11:28 51°12.272 2°48.627 20.8413 4.246692 31.364853 -1.000568
2010-06-11 08:11:32 51°12.272 2°48.622 20.8476 4.246692 31.364853 -1.000568
2010-06-11 08:11:38 51°12.273 2°48.615 20.8479 4.24817 31.376488 -0.965744
2010-06-11 08:11:43 51°12.273 2°48.609 20.8521 4.247431 31.3704 -0.965744
2010-06-11 08:11:47 51°12.273 2°48.603 20.8524 4.247853 31.373879 -0.965744
2010-06-11 08:11:52 51°12.274 2°48.597 20.8558 4.247959 31.373665 -1.000568
2010-06-11 08:11:58 51°12.274 2°48.59 20.8513 4.248381 31.377686 -1.000568
2010-06-11 08:12:03 51°12.275 2°48.583 20.8602 4.248381 31.377686 -1.000568
2010-06-11 08:12:07 51°12.275 2°48.578 20.859 4.247431 31.3704 -0.965744
2010-06-11 08:12:12 51°12.276 2°48.572 20.8614 4.248803 31.381166 -0.965744
2010-06-11 08:12:18 51°12.276 2°48.564 20.8645 4.247642 31.372139 -1.000568
2010-06-11 08:12:23 51°12.276 2°48.557 20.858 4.246587 31.363441 -0.965744
2010-06-11 08:12:27 51°12.276 2°48.552 20.8651 4.248486 31.379098 -0.965744
2010-06-11 08:12:32 51°12.277 2°48.545 20.8698 4.248486 31.379098 -0.965744
2010-06-11 08:12:38 51°12.277 2°48.537 20.873 4.24817 31.376488 -1.000568
2010-06-11 08:12:43 51°12.278 2°48.531 20.8719 4.247748 31.373551 -0.965744
2010-06-11 08:12:47 51°12.278 2°48.525 20.8708 4.24722 31.36866 -1.000568
2010-06-11 08:12:53 51°12.279 2°48.518 20.8769 4.248381 31.378228 -1.000568
2010-06-11 08:12:58 51°12.279 2°48.511 20.8712 4.248486 31.379098 -0.965744
2010-06-11 08:13:03 51°12.28 2°48.505 20.8723 4.248486 31.379098 -0.965744
2010-06-11 08:13:07 51°12.281 2°48.499 20.8821 4.247642 31.372681 -1.000568
2010-06-11 08:13:13 51°12.281 2°48.491 20.8853 4.248803 31.382249 -1.000568
2010-06-11 08:13:18 51°12.282 2°48.485 20.8821 4.248908 31.383119 -1.000568
2010-06-11 08:13:22 51°12.282 2°48.479 20.8868 4.247959 31.375291 -0.965744
2010-06-11 08:13:27 51°12.283 2°48.473 20.8842 4.248697 31.381922 -0.965744
2010-06-11 08:13:33 51°12.284 2°48.465 20.89 4.248697 31.381922 -0.965744
2010-06-11 08:13:38 51°12.285 2°48.458 20.8928 4.249436 31.386927 -0.965744
2010-06-11 08:13:42 51°12.286 2°48.453 20.8876 4.247642 31.373223 -0.965744
2010-06-11 08:13:47 51°12.286 2°48.447 20.8925 4.248592 31.381052 -1.000568
2010-06-11 08:13:53 51°12.287 2°48.439 20.892 4.246692 31.365936 -1.000568
2010-06-11 08:13:58 51°12.288 2°48.432 20.8963 4.24817 31.377572 -0.965744
2010-06-11 08:14:02 51°12.289 2°48.427 20.8971 4.24817 31.377572 -0.965744
2010-06-11 08:14:07 51°12.29 2°48.421 20.891 4.247114 31.369416 -0.965744
2010-06-11 08:14:13 51°12.29 2°48.413 20.8946 4.247959 31.375832 -1.000568
2010-06-11 08:14:18 51°12.291 2°48.407 20.9051 4.248803 31.382792 -0.965744
2010-06-11 08:14:22 51°12.291 2°48.401 20.9062 4.247431 31.372025 -0.965744
2010-06-11 08:14:27 51°12.292 2°48.395 20.9026 4.248275 31.378984 -1.000568
2010-06-11 08:14:32 51°12.292 2°48.388 20.9108 4.248275 31.378984 -1.000568
2010-06-11 08:14:38 51°12.293 2°48.381 20.908 4.247114 31.369416 -1.000568
2010-06-11 08:14:42 51°12.294 2°48.375 20.9056 4.248275 31.378984 -0.965744
2010-06-11 08:14:47 51°12.294 2°48.369 20.9164 4.247748 31.375177 -0.965744
2010-06-11 08:14:52 51°12.295 2°48.362 20.9115 4.247853 31.375505 -1.000568
2010-06-11 08:14:58 51°12.296 2°48.354 20.9156 4.247959 31.376916 -0.965744
2010-06-11 08:15:03 51°12.296 2°48.348 20.9102 4.247959 31.376916 -0.965744
2010-06-11 08:15:07 51°12.297 2°48.342 20.912 4.247431 31.372567 -0.965744
2010-06-11 08:15:12 51°12.297 2°48.336 20.9169 4.247326 31.371697 -0.965744
2010-06-11 08:15:18 51°12.298 2°48.328 20.9159 4.247959 31.376916 -0.965744
2010-06-11 08:15:23 51°12.298 2°48.321 20.9211 4.24817 31.378656 -0.965744
2010-06-11 08:15:27 51°12.298 2°48.316 20.9249 4.247748 31.375718 -0.965744
2010-06-11 08:15:32 51°12.298 2°48.309 20.9268 4.247748 31.375718 -0.965744
2010-06-11 08:15:38 51°12.298 2°48.301 20.9292 4.247748 31.375718 -1.000568
2010-06-11 08:15:42 51°12.298 2°48.296 20.9321 4.247853 31.376046 -0.965744
2010-06-11 08:15:47 51°12.298 2°48.289 20.9309 4.247009 31.369629 -0.965744
2010-06-11 08:15:52 51°12.298 2°48.282 20.9323 4.246587 31.36615 -0.965744
2010-06-11 08:15:58 51°12.298 2°48.274 20.9296 4.24817 31.377572 -0.965744
2010-06-11 08:16:03 51°12.297 2°48.268 20.9305 4.24817 31.377572 -0.965744
2010-06-11 08:16:07 51°12.297 2°48.263 20.9302 4.247642 31.374307 -0.965744
2010-06-11 08:16:13 51°12.296 2°48.255 20.9408 4.247642 31.374307 -0.965744
2010-06-11 08:16:18 51°12.296 2°48.248 20.9412 4.248486 31.380724 -0.965744
2010-06-11 08:16:22 51°12.295 2°48.243 20.9447 4.247431 31.373109 -0.965744
2010-06-11 08:16:27 51°12.295 2°48.236 20.9433 4.247009 31.369087 -0.965744
2010-06-11 08:16:32 51°12.294 2°48.229 20.9454 4.247009 31.369087 -0.965744
2010-06-11 08:16:38 51°12.293 2°48.221 20.9431 4.248381 31.380938 -0.965744
2010-06-11 08:16:42 51°12.293 2°48.216 20.9445 4.246798 31.368431 -1.000568
2010-06-11 08:16:47 51°12.292 2°48.209 20.946 4.247431 31.373109 -1.000568
2010-06-11 08:16:52 51°12.291 2°48.203 20.9493 4.247326 31.372781 -0.965744
2010-06-11 08:16:58 51°12.29 2°48.194 20.9523 4.245743 31.360274 -0.965744
2010-06-11 08:17:02 51°12.289 2°48.189 20.9503 4.245743 31.360274 -0.965744
2010-06-11 08:17:07 51°12.288 2°48.183 20.9516 4.247642 31.375391 -0.965744
2010-06-11 08:17:12 51°12.288 2°48.176 20.9595 4.247114 31.371041 -1.000568
2010-06-11 08:17:18 51°12.286 2°48.168 20.953 4.246903 31.369843 -1.000568
2010-06-11 08:17:23 51°12.285 2°48.162 20.9581 4.247326 31.373865 -1.000568
2010-06-11 08:17:27 51°12.285 2°48.157 20.964 4.246587 31.367233 -1.035392
2010-06-11 08:17:32 51°12.284 2°48.15 20.9608 4.246587 31.367233 -1.035392
2010-06-11 08:17:38 51°12.282 2°48.142 20.9629 4.247431 31.374193 -0.965744
2010-06-11 08:17:43 51°12.282 2°48.135 20.9604 4.246903 31.369843 -0.965744
2010-06-11 08:17:47 51°12.281 2°48.13 20.9634 4.24722 31.372453 -1.000568